Wetterdaten: Mittwoch, 06.04.2022
Datum Zeit Temp. Aussen Temp. o. S. Temp +5cm Feuchte Auss Luftdruck Regen Sonnenschein Regendauer Solar Windben Empfang
06.04.2022 00:00 9,4 C 8,3 C 6,7 C 96 % 1006,1 hPa 0,0 l/m 0 min 0 min 0 W/m 9,7 km/h (2 Bft) 95,74 %
06.04.2022 00:02 9,3 C 8,3 C 6,7 C 96 % 1006,1 hPa 0,0 l/m 0 min 0 min 0 W/m 9,7 km/h (2 Bft) 94,87 %
06.04.2022 00:04 9,3 C 8,3 C 6,7 C 96 % 1006,1 hPa 0,2 l/m 0 min 0 min 0 W/m 16,1 km/h (3 Bft) 95,74 %
06.04.2022 00:08 9,3 C 8,3 C 6,7 C 96 % 1006,1 hPa 0,0 l/m 0 min 0 min 0 W/m 12,9 km/h (3 Bft) 97,87 %
06.04.2022 00:10 9,3 C 8,3 C 6,7 C 96 % 1006,1 hPa 0,0 l/m 0 min 0 min 0 W/m 6,4 km/h (2 Bft) 78,26 %
06.04.2022 00:12 9,2 C 8,3 C 6,7 C 96 % 1006,1 hPa 0,0 l/m 0 min 0 min 0 W/m 19,3 km/h (3 Bft) 92,73 %
06.04.2022 00:14 9,2 C 8,3 C 6,7 C 96 % 1006,1 hPa 0,0 l/m 0 min 0 min 0 W/m 6,4 km/h (2 Bft) 97,87 %
06.04.2022 00:16 9,2 C 8,3 C 6,1 C 96 % 1006,1 hPa 0,0 l/m 0 min 0 min 0 W/m 16,1 km/h (3 Bft) 100,00 %
06.04.2022 00:18 9,2 C 8,3 C 6,1 C 96 % 1006,0 hPa 0,0 l/m 0 min 0 min 0 W/m 12,9 km/h (3 Bft) 97,87 %
06.04.2022 00:20 9,2 C 8,3 C 6,1 C 96 % 1006,0 hPa 0,0 l/m 0 min 0 min 0 W/m 16,1 km/h (3 Bft) 100,00 %
06.04.2022 00:22 9,2 C 8,3 C 6,1 C 96 % 1006,0 hPa 0,0 l/m 0 min 0 min 0 W/m 16,1 km/h (3 Bft) 100,00 %
06.04.2022 00:24 9,2 C 8,3 C 6,1 C 96 % 1006,1 hPa 0,0 l/m 0 min 0 min 0 W/m 19,3 km/h (3 Bft) 100,00 %
06.04.2022 00:26 9,2 C 8,3 C 6,1 C 96 % 1006,0 hPa 0,0 l/m 0 min 0 min 0 W/m 12,9 km/h (3 Bft) 95,74 %
06.04.2022 00:28 9,2 C 8,3 C 6,1 C 96 % 1006,0 hPa 0,0 l/m 0 min 0 min 0 W/m 12,9 km/h (3 Bft) 97,87 %
06.04.2022 00:30 9,2 C 8,3 C 6,1 C 96 % 1006,0 hPa 0,0 l/m 0 min 0 min 0 W/m 6,4 km/h (2 Bft) 100,00 %
06.04.2022 00:32 9,2 C 8,3 C 6,1 C 96 % 1006,1 hPa 0,0 l/m 0 min 0 min 0 W/m 12,9 km/h (3 Bft) 97,83 %
06.04.2022 00:34 9,2 C 8,3 C 6,1 C 96 % 1006,0 hPa 0,0 l/m 0 min 0 min 0 W/m 6,4 km/h (2 Bft) 100,00 %
06.04.2022 00:36 9,2 C 8,3 C 6,1 C 96 % 1006,0 hPa 0,0 l/m 0 min 0 min 0 W/m 16,1 km/h (3 Bft) 97,87 %
06.04.2022 00:38 9,1 C 8,3 C 6,1 C 96 % 1006,0 hPa 0,0 l/m 0 min 0 min 0 W/m 6,4 km/h (2 Bft) 100,00 %
06.04.2022 00:40 9,1 C 8,3 C 6,1 C 96 % 1006,0 hPa 0,0 l/m 0 min 0 min 0 W/m 6,4 km/h (2 Bft) 95,74 %
06.04.2022 00:42 9,1 C 8,3 C 6,1 C 96 % 1006,0 hPa 0,0 l/m 0 min 0 min 0 W/m 12,9 km/h (3 Bft) 91,30 %
06.04.2022 00:44 9,1 C 8,3 C 6,1 C 96 % 1006,0 hPa 0,0 l/m 0 min 0 min 0 W/m 6,4 km/h (2 Bft) 95,74 %
06.04.2022 00:46 9,1 C 8,3 C 6,1 C 96 % 1006,0 hPa 0,0 l/m 0 min 0 min 0 W/m 16,1 km/h (3 Bft) 93,62 %
06.04.2022 00:48 9,1 C 8,3 C 6,1 C 96 % 1006,0 hPa 0,0 l/m 0 min 0 min 0 W/m 19,3 km/h (3 Bft) 97,87 %
06.04.2022 00:50 9,1 C 8,3 C 6,1 C 96 % 1006,0 hPa 0,0 l/m 0 min 0 min 0 W/m 19,3 km/h (3 Bft) 91,49 %
06.04.2022 00:52 9,1 C 8,3 C 6,1 C 96 % 1006,0 hPa 0,0 l/m 0 min 0 min 0 W/m 19,3 km/h (3 Bft) 97,87 %
06.04.2022 00:54 9,1 C 8,3 C 6,1 C 96 % 1006,0 hPa 0,0 l/m 0 min 0 min 0 W/m 16,1 km/h (3 Bft) 100,00 %
06.04.2022 00:56 9,1 C 8,3 C 6,1 C 96 % 1006,1 hPa 0,0 l/m 0 min 0 min 0 W/m 29,0 km/h (5 Bft) 100,00 %
06.04.2022 00:58 9,1 C 8,3 C 6,1 C 96 % 1006,0 hPa 0,0 l/m 0 min 0 min 0 W/m 12,9 km/h (3 Bft) 100,00 %
06.04.2022 01:00 9,1 C 8,3 C 6,1 C 96 % 1005,9 hPa 0,0 l/m 0 min 0 min 0 W/m 22,5 km/h (4 Bft) 97,87 %
06.04.2022 01:02 9,1 C 8,3 C 6,1 C 96 % 1005,9 hPa 0,0 l/m 0 min 0 min 0 W/m 12,9 km/h (3 Bft) 97,87 %
06.04.2022 01:04 9,1 C 8,3 C 6,1 C 96 % 1005,9 hPa 0,0 l/m 0 min 0 min 0 W/m 19,3 km/h (3 Bft) 97,87 %
06.04.2022 01:06 9,1 C 8,3 C 6,1 C 96 % 1006,0 hPa 0,0 l/m 0 min 0 min 0 W/m 9,7 km/h (2 Bft) 95,65 %
06.04.2022 01:08 9,1 C 8,3 C 6,1 C 96 % 1005,9 hPa 0,0 l/m 0 min 0 min 0 W/m 29,0 km/h (5 Bft) 95,74 %
06.04.2022 01:10 9,2 C 8,3 C 6,1 C 95 % 1005,9 hPa 0,0 l/m 0 min 0 min 0 W/m 19,3 km/h (3 Bft) 97,87 %
06.04.2022 01:12 9,2 C 8,3 C 6,1 C 96 % 1006,0 hPa 0,0 l/m 0 min 0 min 0 W/m 19,3 km/h (3 Bft) 95,74 %
06.04.2022 01:14 9,2 C 8,3 C 6,1 C 95 % 1006,0 hPa 0,0 l/m 0 min 0 min 0 W/m 12,9 km/h (3 Bft) 97,87 %
06.04.2022 01:16 9,2 C 8,3 C 6,1 C 95 % 1006,1 hPa 0,0 l/m 0 min 0 min 0 W/m 22,5 km/h (4 Bft) 93,62 %
06.04.2022 01:18 9,2 C 8,3 C 6,1 C 95 % 1005,9 hPa 0,0 l/m 0 min 0 min 0 W/m 22,5 km/h (4 Bft) 97,83 %
06.04.2022 01:20 9,2 C 8,3 C 6,1 C 95 % 1005,8 hPa 0,0 l/m 0 min 0 min 0 W/m 22,5 km/h (4 Bft) 97,87 %
06.04.2022 01:22 9,3 C 8,3 C 6,1 C 95 % 1005,9 hPa 0,0 l/m 0 min 0 min 0 W/m 19,3 km/h (3 Bft) 95,74 %
06.04.2022 01:24 9,3 C 8,3 C 6,1 C 94 % 1005,8 hPa 0,0 l/m 0 min 0 min 0 W/m 19,3 km/h (3 Bft) 95,74 %
06.04.2022 01:26 9,3 C 8,9 C 6,1 C 94 % 1005,8 hPa 0,0 l/m 0 min 0 min 0 W/m 22,5 km/h (4 Bft) 95,74 %
06.04.2022 01:28 9,3 C 8,3 C 6,1 C 94 % 1005,8 hPa 0,0 l/m 0 min 0 min 0 W/m 25,7 km/h (4 Bft) 93,62 %
06.04.2022 01:30 9,3 C 8,3 C 6,1 C 94 % 1005,8 hPa 0,0 l/m 0 min 0 min 0 W/m 22,5 km/h (4 Bft) 93,48 %
06.04.2022 01:32 9,3 C 8,9 C 6,1 C 94 % 1005,8 hPa 0,0 l/m 0 min 0 min 0 W/m 19,3 km/h (3 Bft) 95,74 %
06.04.2022 01:34 9,3 C 8,3 C 6,1 C 94 % 1005,7 hPa 0,0 l/m 0 min 0 min 0 W/m 12,9 km/h (3 Bft) 93,62 %
06.04.2022 01:36 9,3 C 8,3 C 6,1 C 94 % 1005,7 hPa 0,0 l/m 0 min 0 min 0 W/m 12,9 km/h (3 Bft) 95,74 %
06.04.2022 01:38 9,3 C 8,3 C 6,1 C 93 % 1005,7 hPa 0,0 l/m 0 min 0 min 0 W/m 19,3 km/h (3 Bft) 95,74 %
06.04.2022 01:40 9,3 C 8,3 C 6,1 C 93 % 1005,7 hPa 0,0 l/m 0 min 0 min 0 W/m 19,3 km/h (3 Bft) 93,62 %
06.04.2022 01:42 9,3 C 8,3 C 6,1 C 93 % 1005,7 hPa 0,0 l/m 0 min 0 min 0 W/m 12,9 km/h (3 Bft) 100,00 %
06.04.2022 01:44 9,3 C 8,3 C 6,1 C 93 % 1005,7 hPa 0,0 l/m 0 min 0 min 0 W/m 19,3 km/h (3 Bft) 97,87 %
06.04.2022 01:46 9,3 C 8,3 C 6,1 C 93 % 1005,7 hPa 0,0 l/m 0 min 0 min 0 W/m 19,3 km/h (3 Bft) 95,74 %
06.04.2022 01:48 9,3 C 8,3 C 6,1 C 93 % 1005,8 hPa 0,0 l/m 0 min 0 min 0 W/m 12,9 km/h (3 Bft) 97,87 %
06.04.2022 01:50 9,3 C 8,3 C 6,1 C 93 % 1005,7 hPa 0,0 l/m 0 min 0 min 0 W/m 12,9 km/h (3 Bft) 97,87 %
06.04.2022 01:52 9,3 C 8,3 C 6,1 C 93 % 1005,8 hPa 0,0 l/m 0 min 0 min 0 W/m 25,7 km/h (4 Bft) 100,00 %
06.04.2022 01:54 9,3 C 8,3 C 6,1 C 93 % 1005,7 hPa 0,0 l/m 0 min 0 min 0 W/m 16,1 km/h (3 Bft) 100,00 %
06.04.2022 01:56 9,3 C 8,3 C 6,1 C 93 % 1005,7 hPa 0,0 l/m 0 min 0 min 0 W/m 16,1 km/h (3 Bft) 100,00 %
06.04.2022 01:58 9,3 C 8,3 C 6,1 C 93 % 1005,8 hPa 0,0 l/m 0 min 0 min 0 W/m 19,3 km/h (3 Bft) 100,00 %
06.04.2022 02:00 9,3 C 8,3 C 6,1 C 93 % 1005,7 hPa 0,0 l/m 0 min 0 min 0 W/m 16,1 km/h (3 Bft) 100,00 %
06.04.2022 02:02 9,3 C 8,3 C 6,1 C 93 % 1005,6 hPa 0,0 l/m 0 min 0 min 0 W/m 19,3 km/h (3 Bft) 100,00 %
06.04.2022 02:04 9,3 C 8,3 C 6,1 C 93 % 1005,6 hPa 0,0 l/m 0 min 0 min 0 W/m 12,9 km/h (3 Bft) 100,00 %
06.04.2022 02:06 9,3 C 8,3 C 6,1 C 92 % 1005,6 hPa 0,0 l/m 0 min 0 min 0 W/m 12,9 km/h (3 Bft) 100,00 %
06.04.2022 02:08 9,3 C 8,3 C 6,1 C 92 % 1005,6 hPa 0,0 l/m 0 min 0 min 0 W/m 16,1 km/h (3 Bft) 100,00 %
06.04.2022 02:10 9,3 C 8,3 C 6,1 C 92 % 1005,6 hPa 0,0 l/m 0 min 0 min 0 W/m 22,5 km/h (4 Bft) 100,00 %
06.04.2022 02:12 9,3 C 8,3 C 6,1 C 92 % 1005,6 hPa 0,0 l/m 0 min 0 min 0 W/m 12,9 km/h (3 Bft) 97,87 %
06.04.2022 02:14 9,3 C 8,3 C 6,1 C 92 % 1005,6 hPa 0,0 l/m 0 min 0 min 0 W/m 12,9 km/h (3 Bft) 100,00 %
06.04.2022 02:16 9,3 C 8,3 C 6,1 C 92 % 1005,5 hPa 0,0 l/m 0 min 0 min 0 W/m 12,9 km/h (3 Bft) 100,00 %
06.04.2022 02:18 9,3 C 8,3 C 5,6 C 92 % 1005,5 hPa 0,0 l/m 0 min 0 min 0 W/m 12,9 km/h (3 Bft) 100,00 %
06.04.2022 02:20 9,3 C 8,3 C 5,6 C 92 % 1005,5 hPa 0,0 l/m 0 min 0 min 0 W/m 25,7 km/h (4 Bft) 97,87 %
06.04.2022 02:22 9,3 C 8,3 C 5,6 C 92 % 1005,4 hPa 0,0 l/m 0 min 0 min 0 W/m 12,9 km/h (3 Bft) 100,00 %
06.04.2022 02:24 9,3 C 8,3 C 5,6 C 92 % 1005,5 hPa 0,0 l/m 0 min 0 min 0 W/m 16,1 km/h (3 Bft) 100,00 %
06.04.2022 02:26 9,3 C 8,3 C 5,6 C 92 % 1005,5 hPa 0,0 l/m 0 min 0 min 0 W/m 12,9 km/h (3 Bft) 100,00 %
06.04.2022 02:28 9,3 C 8,3 C 5,6 C 92 % 1005,5 hPa 0,0 l/m 0 min 0 min 0 W/m 22,5 km/h (4 Bft) 97,83 %
06.04.2022 02:30 9,3 C 8,3 C 5,6 C 92 % 1005,5 hPa 0,0 l/m 0 min 0 min 0 W/m 29,0 km/h (5 Bft) 100,00 %
06.04.2022 02:32 9,3 C 8,3 C 5,6 C 91 % 1005,5 hPa 0,0 l/m 0 min 0 min 0 W/m 19,3 km/h (3 Bft) 97,87 %
06.04.2022 02:34 9,3 C 8,3 C 5,6 C 91 % 1005,5 hPa 0,0 l/m 0 min 0 min 0 W/m 22,5 km/h (4 Bft) 100,00 %
06.04.2022 02:36 9,3 C 8,3 C 5,6 C 91 % 1005,4 hPa 0,0 l/m 0 min 0 min 0 W/m 19,3 km/h (3 Bft) 95,74 %
06.04.2022 02:38 9,3 C 8,3 C 5,6 C 91 % 1005,5 hPa 0,0 l/m 0 min 0 min 0 W/m 16,1 km/h (3 Bft) 97,87 %
06.04.2022 02:40 9,3 C 8,9 C 5,6 C 91 % 1005,6 hPa 0,0 l/m 0 min 0 min 0 W/m 29,0 km/h (5 Bft) 97,83 %
06.04.2022 02:42 9,3 C 8,9 C 5,6 C 91 % 1005,4 hPa 0,0 l/m 0 min 0 min 0 W/m 19,3 km/h (3 Bft) 95,74 %
06.04.2022 02:44 9,3 C 8,3 C 5,6 C 91 % 1005,4 hPa 0,0 l/m 0 min 0 min 0 W/m 9,7 km/h (2 Bft) 95,74 %
06.04.2022 02:46 9,3 C 8,3 C 5,6 C 91 % 1005,4 hPa 0,0 l/m 0 min 0 min 0 W/m 12,9 km/h (3 Bft) 95,74 %
06.04.2022 02:48 9,3 C 8,3 C 5,6 C 91 % 1005,5 hPa 0,0 l/m 0 min 0 min 0 W/m 35,4 km/h (5 Bft) 97,87 %
06.04.2022 02:50 9,3 C 8,3 C 5,6 C 91 % 1005,5 hPa 0,0 l/m 0 min 0 min 0 W/m 12,9 km/h (3 Bft) 97,87 %
06.04.2022 02:52 9,3 C 8,3 C 5,6 C 91 % 1005,4 hPa 0,0 l/m 0 min 0 min 0 W/m 22,5 km/h (4 Bft) 97,83 %
06.04.2022 02:54 9,3 C 8,3 C 5,6 C 91 % 1005,4 hPa 0,0 l/m 0 min 0 min 0 W/m 16,1 km/h (3 Bft) 95,74 %
06.04.2022 02:56 9,3 C 8,3 C 5,6 C 91 % 1005,4 hPa 0,0 l/m 0 min 0 min 0 W/m 12,9 km/h (3 Bft) 95,74 %
06.04.2022 02:58 9,3 C 8,3 C 5,6 C 91 % 1005,4 hPa 0,0 l/m 0 min 0 min 0 W/m 19,3 km/h (3 Bft) 95,74 %
06.04.2022 03:00 9,3 C 8,3 C 5,6 C 91 % 1005,3 hPa 0,0 l/m 0 min 0 min 0 W/m 12,9 km/h (3 Bft) 97,87 %
06.04.2022 03:02 9,3 C 8,3 C 5,6 C 91 % 1005,4 hPa 0,0 l/m 0 min 0 min 0 W/m 19,3 km/h (3 Bft) 95,74 %
06.04.2022 03:04 9,3 C 8,3 C 5,6 C 91 % 1005,2 hPa 0,0 l/m 0 min 0 min 0 W/m 22,5 km/h (4 Bft) 97,83 %
06.04.2022 03:06 9,3 C 8,3 C 5,6 C 91 % 1005,2 hPa 0,0 l/m 0 min 0 min 0 W/m 16,1 km/h (3 Bft) 95,74 %
06.04.2022 03:08 9,3 C 8,3 C 5,6 C 91 % 1005,2 hPa 0,0 l/m 0 min 0 min 0 W/m 22,5 km/h (4 Bft) 95,74 %
06.04.2022 03:10 9,3 C 8,3 C 5,6 C 91 % 1005,2 hPa 0,0 l/m 0 min 0 min 0 W/m 12,9 km/h (3 Bft) 91,49 %
06.04.2022 03:12 9,3 C 8,3 C 5,6 C 91 % 1005,2 hPa 0,0 l/m 0 min 0 min 0 W/m 12,9 km/h (3 Bft) 93,62 %
06.04.2022 03:14 9,3 C 8,3 C 5,6 C 91 % 1005,2 hPa 0,0 l/m 0 min 0 min 0 W/m 19,3 km/h (3 Bft) 95,74 %
06.04.2022 03:16 9,2 C 8,3 C 5,6 C 90 % 1005,2 hPa 0,0 l/m 0 min 0 min 0 W/m 12,9 km/h (3 Bft) 93,48 %
06.04.2022 03:18 9,3 C 8,3 C 5,6 C 90 % 1005,1 hPa 0,0 l/m 0 min 0 min 0 W/m 25,7 km/h (4 Bft) 93,62 %
06.04.2022 03:20 9,3 C 8,3 C 5,6 C 90 % 1005,1 hPa 0,0 l/m 0 min 0 min 0 W/m 19,3 km/h (3 Bft) 95,74 %
06.04.2022 03:22 9,2 C 8,3 C 5,6 C 90 % 1005,2 hPa 0,0 l/m 0 min 0 min 0 W/m 19,3 km/h (3 Bft) 93,62 %
06.04.2022 03:24 9,2 C 8,3 C 5,6 C 90 % 1005,2 hPa 0,0 l/m 0 min 0 min 0 W/m 19,3 km/h (3 Bft) 95,65 %
06.04.2022 03:26 9,2 C 8,3 C 5,6 C 90 % 1005,1 hPa 0,0 l/m 0 min 0 min 0 W/m 12,9 km/h (3 Bft) 93,62 %
06.04.2022 03:28 9,2 C 8,3 C 5,6 C 90 % 1005,2 hPa 0,0 l/m 0 min 0 min 0 W/m 16,1 km/h (3 Bft) 93,48 %
06.04.2022 03:30 9,2 C 8,3 C 5,6 C 90 % 1005,2 hPa 0,0 l/m 0 min 0 min 0 W/m 19,3 km/h (3 Bft) 93,62 %
06.04.2022 03:32 9,2 C 8,3 C 5,6 C 90 % 1005,2 hPa 0,0 l/m 0 min 0 min 0 W/m 25,7 km/h (4 Bft) 95,74 %
06.04.2022 03:34 9,2 C 8,3 C 5,6 C 90 % 1005,1 hPa 0,0 l/m 0 min 0 min 0 W/m 16,1 km/h (3 Bft) 95,74 %
06.04.2022 03:36 9,2 C 8,3 C 5,6 C 90 % 1005,2 hPa 0,0 l/m 0 min 0 min 0 W/m 12,9 km/h (3 Bft) 93,62 %
06.04.2022 03:38 9,2 C 8,3 C 5,6 C 90 % 1005,1 hPa 0,0 l/m 0 min 0 min 0 W/m 19,3 km/h (3 Bft) 95,74 %
06.04.2022 03:40 9,2 C 8,3 C 5,6 C 90 % 1005,2 hPa 0,0 l/m 0 min 0 min 0 W/m 22,5 km/h (4 Bft) 95,65 %
06.04.2022 03:42 9,2 C 8,3 C 5,6 C 90 % 1005,1 hPa 0,0 l/m 0 min 0 min 0 W/m 16,1 km/h (3 Bft) 97,87 %
06.04.2022 03:44 9,2 C 8,3 C 5,6 C 90 % 1005,1 hPa 0,0 l/m 0 min 0 min 0 W/m 16,1 km/h (3 Bft) 97,87 %
06.04.2022 03:46 9,2 C 8,3 C 5,6 C 90 % 1005,1 hPa 0,0 l/m 0 min 0 min 0 W/m 41,8 km/h (6 Bft) 95,74 %
06.04.2022 03:48 9,2 C 8,3 C 5,6 C 90 % 1005,0 hPa 0,0 l/m 0 min 0 min 0 W/m 16,1 km/h (3 Bft) 95,74 %
06.04.2022 03:50 9,2 C 8,3 C 5,6 C 90 % 1005,0 hPa 0,0 l/m 0 min 0 min 0 W/m 19,3 km/h (3 Bft) 97,83 %
06.04.2022 03:52 9,2 C 8,3 C 5,6 C 90 % 1004,9 hPa 0,0 l/m 0 min 0 min 0 W/m 12,9 km/h (3 Bft) 97,87 %
06.04.2022 03:54 9,2 C 8,3 C 5,6 C 90 % 1004,9 hPa 0,0 l/m 0 min 0 min 0 W/m 12,9 km/h (3 Bft) 97,87 %
06.04.2022 03:56 9,2 C 8,3 C 5,6 C 90 % 1004,9 hPa 0,0 l/m 0 min 0 min 0 W/m 12,9 km/h (3 Bft) 97,87 %
06.04.2022 03:58 9,2 C 8,3 C 5,6 C 90 % 1004,9 hPa 0,0 l/m 0 min 0 min 0 W/m 19,3 km/h (3 Bft) 97,87 %
06.04.2022 04:00 9,2 C 8,3 C 5,6 C 90 % 1004,9 hPa 0,0 l/m 0 min 0 min 0 W/m 25,7 km/h (4 Bft) 97,87 %
06.04.2022 04:05 9,2 C 8,3 C 5,6 C 90 % 1004,9 hPa 0,0 l/m 0 min 0 min 0 W/m 19,3 km/h (3 Bft) 95,38 %
06.04.2022 04:06 9,2 C 8,3 C 5,6 C 90 % 1004,9 hPa 0,0 l/m 0 min 0 min 0 W/m 12,9 km/h (3 Bft) 95,65 %
06.04.2022 04:08 9,2 C 8,3 C 5,6 C 90 % 1004,9 hPa 0,0 l/m 0 min 0 min 0 W/m 16,1 km/h (3 Bft) 100,00 %
06.04.2022 04:10 9,2 C 8,3 C 5,6 C 90 % 1004,9 hPa 0,0 l/m 0 min 0 min 0 W/m 19,3 km/h (3 Bft) 100,00 %
06.04.2022 04:12 9,2 C 8,3 C 5,6 C 90 % 1004,9 hPa 0,0 l/m 0 min 0 min 0 W/m 12,9 km/h (3 Bft) 100,00 %
06.04.2022 04:14 9,2 C 8,3 C 5,6 C 90 % 1004,9 hPa 0,0 l/m 0 min 0 min 0 W/m 19,3 km/h (3 Bft) 100,00 %
06.04.2022 04:16 9,2 C 8,3 C 5,6 C 90 % 1004,9 hPa 0,0 l/m 0 min 0 min 0 W/m 12,9 km/h (3 Bft) 97,87 %
06.04.2022 04:18 9,2 C 8,3 C 5,6 C 89 % 1004,9 hPa 0,0 l/m 0 min 0 min 0 W/m 16,1 km/h (3 Bft) 100,00 %
06.04.2022 04:20 9,2 C 8,3 C 5,6 C 89 % 1004,9 hPa 0,0 l/m 0 min 0 min 0 W/m 12,9 km/h (3 Bft) 100,00 %
06.04.2022 04:22 9,2 C 8,3 C 5,6 C 89 % 1004,9 hPa 0,0 l/m 0 min 0 min 0 W/m 19,3 km/h (3 Bft) 100,00 %
06.04.2022 04:24 9,2 C 8,3 C 5,6 C 89 % 1004,8 hPa 0,0 l/m 0 min 0 min 0 W/m 16,1 km/h (3 Bft) 100,00 %
06.04.2022 04:26 9,2 C 8,3 C 5,0 C 89 % 1004,8 hPa 0,0 l/m 0 min 0 min 0 W/m 16,1 km/h (3 Bft) 97,83 %
06.04.2022 04:28 9,2 C 8,3 C 5,0 C 89 % 1004,8 hPa 0,0 l/m 0 min 0 min 0 W/m 16,1 km/h (3 Bft) 100,00 %
06.04.2022 04:30 9,2 C 8,3 C 5,0 C 89 % 1004,8 hPa 0,0 l/m 0 min 0 min 0 W/m 12,9 km/h (3 Bft) 100,00 %
06.04.2022 04:32 9,1 C 8,3 C 5,0 C 89 % 1004,9 hPa 0,0 l/m 0 min 0 min 0 W/m 25,7 km/h (4 Bft) 100,00 %
06.04.2022 04:34 9,2 C 8,3 C 5,0 C 89 % 1004,9 hPa 0,0 l/m 0 min 0 min 0 W/m 16,1 km/h (3 Bft) 100,00 %
06.04.2022 04:36 9,1 C 8,3 C 5,0 C 89 % 1004,8 hPa 0,0 l/m 0 min 0 min 0 W/m 16,1 km/h (3 Bft) 97,87 %
06.04.2022 04:38 9,1 C 8,3 C 5,0 C 89 % 1004,8 hPa 0,0 l/m 0 min 0 min 0 W/m 6,4 km/h (2 Bft) 100,00 %
06.04.2022 04:40 9,1 C 8,3 C 5,0 C 89 % 1004,9 hPa 0,0 l/m 0 min 0 min 0 W/m 16,1 km/h (3 Bft) 100,00 %
06.04.2022 04:42 9,1 C 8,3 C 5,0 C 89 % 1004,8 hPa 0,0 l/m 0 min 0 min 0 W/m 19,3 km/h (3 Bft) 100,00 %
06.04.2022 04:44 9,1 C 8,3 C 5,0 C 89 % 1004,7 hPa 0,0 l/m 0 min 0 min 0 W/m 16,1 km/h (3 Bft) 97,87 %
06.04.2022 04:46 9,1 C 8,3 C 5,0 C 89 % 1004,7 hPa 0,0 l/m 0 min 0 min 0 W/m 22,5 km/h (4 Bft) 97,87 %
06.04.2022 04:48 9,1 C 8,3 C 5,0 C 89 % 1004,8 hPa 0,0 l/m 0 min 0 min 0 W/m 16,1 km/h (3 Bft) 100,00 %
06.04.2022 04:50 9,1 C 8,3 C 5,0 C 89 % 1004,7 hPa 0,0 l/m 0 min 0 min 0 W/m 12,9 km/h (3 Bft) 100,00 %
06.04.2022 04:52 9,1 C 8,3 C 5,0 C 89 % 1004,7 hPa 0,0 l/m 0 min 0 min 0 W/m 16,1 km/h (3 Bft) 97,87 %
06.04.2022 04:54 9,1 C 8,3 C 5,6 C 89 % 1004,6 hPa 0,0 l/m 0 min 0 min 0 W/m 41,8 km/h (6 Bft) 100,00 %
06.04.2022 04:56 9,2 C 8,3 C 5,6 C 89 % 1004,7 hPa 0,0 l/m 0 min 0 min 0 W/m 16,1 km/h (3 Bft) 100,00 %
06.04.2022 04:58 9,1 C 8,3 C 5,6 C 89 % 1004,6 hPa 0,0 l/m 0 min 0 min 0 W/m 22,5 km/h (4 Bft) 100,00 %
06.04.2022 05:00 9,1 C 8,3 C 5,6 C 89 % 1004,6 hPa 0,0 l/m 0 min 0 min 0 W/m 19,3 km/h (3 Bft) 100,00 %
06.04.2022 05:02 9,1 C 8,3 C 6,1 C 88 % 1004,6 hPa 0,0 l/m 0 min 0 min 0 W/m 19,3 km/h (3 Bft) 97,87 %
06.04.2022 05:04 9,1 C 8,3 C 6,1 C 88 % 1004,5 hPa 0,0 l/m 0 min 0 min 0 W/m 16,1 km/h (3 Bft) 97,87 %
06.04.2022 05:06 9,1 C 8,3 C 6,1 C 88 % 1004,5 hPa 0,0 l/m 0 min 0 min 0 W/m 16,1 km/h (3 Bft) 95,74 %
06.04.2022 05:08 9,1 C 8,3 C 6,1 C 88 % 1004,5 hPa 0,0 l/m 0 min 0 min 0 W/m 22,5 km/h (4 Bft) 97,87 %
06.04.2022 05:10 9,1 C 8,3 C 6,1 C 88 % 1004,5 hPa 0,0 l/m 0 min 0 min 0 W/m 19,3 km/h (3 Bft) 95,74 %
06.04.2022 05:12 9,1 C 8,3 C 6,1 C 88 % 1004,6 hPa 0,0 l/m 0 min 0 min 0 W/m 16,1 km/h (3 Bft) 95,65 %
06.04.2022 05:14 9,1 C 8,3 C 5,6 C 88 % 1004,5 hPa 0,0 l/m 0 min 0 min 0 W/m 12,9 km/h (3 Bft) 97,87 %
06.04.2022 05:16 9,1 C 8,3 C 5,6 C 88 % 1004,6 hPa 0,0 l/m 0 min 0 min 0 W/m 25,7 km/h (4 Bft) 98,11 %
06.04.2022 05:18 9,1 C 8,3 C 6,1 C 88 % 1004,6 hPa 0,0 l/m 0 min 0 min 0 W/m 16,1 km/h (3 Bft) 95,74 %
06.04.2022 05:20 9,1 C 8,3 C 6,1 C 88 % 1004,6 hPa 0,0 l/m 0 min 0 min 0 W/m 19,3 km/h (3 Bft) 97,87 %
06.04.2022 05:22 9,1 C 8,3 C 6,1 C 88 % 1004,5 hPa 0,0 l/m 0 min 0 min 0 W/m 25,7 km/h (4 Bft) 95,65 %
06.04.2022 05:24 9,1 C 8,3 C 6,1 C 88 % 1004,6 hPa 0,0 l/m 0 min 0 min 0 W/m 29,0 km/h (5 Bft) 97,87 %
06.04.2022 05:26 9,1 C 8,3 C 6,1 C 88 % 1004,6 hPa 0,0 l/m 0 min 0 min 0 W/m 12,9 km/h (3 Bft) 97,87 %
06.04.2022 05:28 9,1 C 8,3 C 6,1 C 88 % 1004,5 hPa 0,0 l/m 0 min 0 min 0 W/m 16,1 km/h (3 Bft) 97,87 %
06.04.2022 05:30 9,1 C 8,3 C 5,6 C 88 % 1004,5 hPa 0,0 l/m 0 min 0 min 0 W/m 16,1 km/h (3 Bft) 97,87 %
06.04.2022 05:32 9,0 C 8,3 C 5,6 C 88 % 1004,5 hPa 0,0 l/m 0 min 0 min 0 W/m 12,9 km/h (3 Bft) 97,87 %
06.04.2022 05:34 9,0 C 8,3 C 6,1 C 88 % 1004,5 hPa 0,0 l/m 0 min 0 min 0 W/m 32,2 km/h (5 Bft) 97,83 %
06.04.2022 05:36 9,0 C 8,3 C 6,1 C 88 % 1004,5 hPa 0,0 l/m 0 min 0 min 0 W/m 16,1 km/h (3 Bft) 100,00 %
06.04.2022 05:38 8,9 C 8,3 C 6,1 C 88 % 1004,4 hPa 0,0 l/m 0 min 0 min 0 W/m 16,1 km/h (3 Bft) 100,00 %
06.04.2022 05:40 8,9 C 8,3 C 5,6 C 88 % 1004,4 hPa 0,0 l/m 0 min 0 min 0 W/m 16,1 km/h (3 Bft) 93,62 %
06.04.2022 05:42 8,9 C 8,3 C 5,6 C 88 % 1004,3 hPa 0,0 l/m 0 min 0 min 0 W/m 16,1 km/h (3 Bft) 100,00 %
06.04.2022 05:44 8,9 C 8,3 C 5,6 C 88 % 1004,3 hPa 0,0 l/m 0 min 0 min 0 W/m 19,3 km/h (3 Bft) 97,87 %
06.04.2022 05:46 8,9 C 8,3 C 5,6 C 88 % 1004,3 hPa 0,0 l/m 0 min 0 min 0 W/m 16,1 km/h (3 Bft) 94,23 %
06.04.2022 05:48 8,9 C 8,3 C 5,6 C 88 % 1004,3 hPa 0,0 l/m 0 min 0 min 0 W/m 16,1 km/h (3 Bft) 97,87 %
06.04.2022 05:50 8,8 C 7,8 C 5,6 C 88 % 1004,3 hPa 0,0 l/m 0 min 0 min 0 W/m 12,9 km/h (3 Bft) 97,87 %
06.04.2022 05:52 8,8 C 7,8 C 5,6 C 88 % 1004,3 hPa 0,0 l/m 0 min 0 min 0 W/m 16,1 km/h (3 Bft) 97,87 %
06.04.2022 05:54 8,8 C 7,8 C 5,6 C 88 % 1004,3 hPa 0,0 l/m 0 min 0 min 0 W/m 19,3 km/h (3 Bft) 95,12 %
06.04.2022 05:56 8,8 C 7,8 C 5,6 C 88 % 1004,3 hPa 0,0 l/m 0 min 0 min 0 W/m 22,5 km/h (4 Bft) 95,74 %
06.04.2022 05:58 8,8 C 7,8 C 5,6 C 88 % 1004,2 hPa 0,0 l/m 0 min 0 min 0 W/m 12,9 km/h (3 Bft) 95,74 %
06.04.2022 06:00 8,8 C 7,8 C 5,6 C 88 % 1004,3 hPa 0,0 l/m 0 min 0 min 0 W/m 12,9 km/h (3 Bft) 95,65 %
06.04.2022 06:02 8,7 C 7,8 C 5,6 C 88 % 1004,2 hPa 0,0 l/m 0 min 0 min 0 W/m 16,1 km/h (3 Bft) 92,45 %
06.04.2022 06:04 8,7 C 7,8 C 5,6 C 88 % 1004,3 hPa 0,0 l/m 0 min 0 min 0 W/m 19,3 km/h (3 Bft) 95,74 %
06.04.2022 06:08 8,7 C 7,8 C 5,6 C 87 % 1004,2 hPa 0,0 l/m 0 min 0 min 0 W/m 19,3 km/h (3 Bft) 95,45 %
06.04.2022 06:10 8,7 C 7,8 C 5,6 C 87 % 1004,2 hPa 0,0 l/m 0 min 0 min 0 W/m 16,1 km/h (3 Bft) 95,74 %
06.04.2022 06:12 8,7 C 7,8 C 5,6 C 87 % 1004,1 hPa 0,0 l/m 0 min 0 min 0 W/m 12,9 km/h (3 Bft) 95,65 %
06.04.2022 06:14 8,7 C 7,8 C 5,6 C 87 % 1004,1 hPa 0,0 l/m 0 min 0 min 0 W/m 19,3 km/h (3 Bft) 95,74 %
06.04.2022 06:16 8,7 C 7,8 C 5,6 C 87 % 1004,2 hPa 0,0 l/m 0 min 0 min 0 W/m 16,1 km/h (3 Bft) 96,23 %
06.04.2022 06:18 8,7 C 7,8 C 5,6 C 87 % 1004,2 hPa 0,0 l/m 0 min 0 min 0 W/m 9,7 km/h (2 Bft) 95,74 %
06.04.2022 06:20 8,7 C 7,8 C 5,6 C 87 % 1004,2 hPa 0,0 l/m 0 min 0 min 0 W/m 16,1 km/h (3 Bft) 93,48 %
06.04.2022 06:22 8,7 C 7,8 C 5,6 C 87 % 1004,2 hPa 0,0 l/m 0 min 0 min 0 W/m 12,9 km/h (3 Bft) 95,74 %
06.04.2022 06:24 8,7 C 7,8 C 5,6 C 87 % 1004,2 hPa 0,0 l/m 0 min 0 min 0 W/m 12,9 km/h (3 Bft) 95,74 %
06.04.2022 06:26 8,7 C 8,3 C 5,6 C 87 % 1004,3 hPa 0,0 l/m 0 min 0 min 0 W/m 25,7 km/h (4 Bft) 95,74 %
06.04.2022 06:28 8,8 C 8,3 C 5,6 C 86 % 1004,1 hPa 0,0 l/m 0 min 0 min 0 W/m 22,5 km/h (4 Bft) 95,74 %
06.04.2022 06:30 8,8 C 8,3 C 5,6 C 86 % 1004,2 hPa 0,0 l/m 0 min 0 min 0 W/m 16,1 km/h (3 Bft) 95,74 %
06.04.2022 06:32 8,8 C 8,3 C 5,6 C 86 % 1004,2 hPa 0,0 l/m 0 min 0 min 0 W/m 19,3 km/h (3 Bft) 100,00 %
06.04.2022 06:34 8,8 C 8,3 C 5,6 C 86 % 1004,1 hPa 0,0 l/m 0 min 0 min 0 W/m 19,3 km/h (3 Bft) 95,74 %
06.04.2022 06:36 8,8 C 8,3 C 5,6 C 86 % 1004,1 hPa 0,0 l/m 0 min 0 min 0 W/m 19,3 km/h (3 Bft) 95,65 %
06.04.2022 06:38 8,8 C 8,3 C 5,6 C 86 % 1004,1 hPa 0,0 l/m 0 min 0 min 0 W/m 19,3 km/h (3 Bft) 100,00 %
06.04.2022 06:40 8,8 C 8,3 C 5,6 C 86 % 1004,1 hPa 0,0 l/m 0 min 0 min 0 W/m 19,3 km/h (3 Bft) 100,00 %
06.04.2022 06:42 8,8 C 8,3 C 6,1 C 85 % 1004,1 hPa 0,0 l/m 0 min 0 min 0 W/m 16,1 km/h (3 Bft) 100,00 %
06.04.2022 06:44 8,9 C 8,3 C 6,1 C 85 % 1004,1 hPa 0,0 l/m 0 min 0 min 0 W/m 16,1 km/h (3 Bft) 97,87 %
06.04.2022 06:46 8,9 C 8,3 C 6,1 C 85 % 1004,1 hPa 0,0 l/m 0 min 0 min 0 W/m 16,1 km/h (3 Bft) 100,00 %
06.04.2022 06:48 8,9 C 8,3 C 6,1 C 85 % 1004,3 hPa 0,0 l/m 0 min 0 min 0 W/m 25,7 km/h (4 Bft) 100,00 %
06.04.2022 06:50 8,9 C 8,3 C 6,1 C 85 % 1004,1 hPa 0,0 l/m 0 min 0 min 0 W/m 12,9 km/h (3 Bft) 100,00 %
06.04.2022 06:52 9,0 C 8,3 C 6,1 C 85 % 1004,1 hPa 0,0 l/m 0 min 0 min 0 W/m 19,3 km/h (3 Bft) 100,00 %
06.04.2022 06:54 9,0 C 8,3 C 6,1 C 85 % 1004,1 hPa 0,0 l/m 0 min 0 min 0 W/m 16,1 km/h (3 Bft) 97,87 %
06.04.2022 06:56 9,0 C 8,3 C 6,1 C 85 % 1004,1 hPa 0,0 l/m 0 min 0 min 0 W/m 16,1 km/h (3 Bft) 97,83 %
06.04.2022 06:58 9,0 C 8,3 C 6,1 C 85 % 1004,1 hPa 0,0 l/m 0 min 0 min 0 W/m 12,9 km/h (3 Bft) 100,00 %
06.04.2022 07:00 9,0 C 8,3 C 6,1 C 85 % 1004,1 hPa 0,0 l/m 0 min 0 min 0 W/m 16,1 km/h (3 Bft) 97,87 %
06.04.2022 07:02 9,1 C 8,3 C 6,1 C 84 % 1004,2 hPa 0,0 l/m 0 min 0 min 0 W/m 22,5 km/h (4 Bft) 95,74 %
06.04.2022 07:04 9,1 C 8,3 C 6,1 C 84 % 1004,3 hPa 0,0 l/m 0 min 0 min 0 W/m 32,2 km/h (5 Bft) 97,87 %
06.04.2022 07:06 9,1 C 8,3 C 6,1 C 84 % 1004,2 hPa 0,0 l/m 0 min 0 min 0 W/m 19,3 km/h (3 Bft) 95,74 %
06.04.2022 07:08 9,1 C 8,3 C 6,1 C 84 % 1004,0 hPa 0,0 l/m 0 min 0 min 0 W/m 25,7 km/h (4 Bft) 97,83 %
06.04.2022 07:10 9,1 C 8,3 C 6,1 C 84 % 1004,0 hPa 0,0 l/m 0 min 0 min 1 W/m 19,3 km/h (3 Bft) 97,87 %
06.04.2022 07:12 9,1 C 8,3 C 6,1 C 85 % 1004,0 hPa 0,0 l/m 0 min 0 min 5 W/m 22,5 km/h (4 Bft) 97,56 %
06.04.2022 07:14 9,1 C 8,3 C 6,1 C 85 % 1004,0 hPa 0,0 l/m 0 min 0 min 5 W/m 25,7 km/h (4 Bft) 97,87 %
06.04.2022 07:16 9,1 C 8,3 C 6,1 C 85 % 1004,0 hPa 0,0 l/m 0 min 0 min 5 W/m 29,0 km/h (5 Bft) 98,11 %
06.04.2022 07:18 9,1 C 8,3 C 6,1 C 85 % 1004,0 hPa 0,0 l/m 0 min 0 min 7 W/m 19,3 km/h (3 Bft) 95,74 %
06.04.2022 07:20 9,1 C 8,3 C 6,1 C 85 % 1004,0 hPa 0,0 l/m 0 min 0 min 10 W/m 16,1 km/h (3 Bft) 95,74 %
06.04.2022 07:22 9,1 C 8,3 C 6,1 C 85 % 1004,0 hPa 0,0 l/m 0 min 0 min 11 W/m 12,9 km/h (3 Bft) 37,50 %
06.04.2022 07:24 9,1 C 8,3 C 6,1 C 85 % 1004,0 hPa 0,0 l/m 0 min 0 min 13 W/m 12,9 km/h (3 Bft) 97,87 %
06.04.2022 07:26 9,1 C 8,3 C 5,6 C 85 % 1004,1 hPa 0,0 l/m 0 min 0 min 14 W/m 12,9 km/h (3 Bft) 97,87 %
06.04.2022 07:28 9,1 C 8,3 C 5,6 C 86 % 1004,0 hPa 0,0 l/m 0 min 0 min 14 W/m 19,3 km/h (3 Bft) 97,87 %
06.04.2022 07:30 9,1 C 8,3 C 5,6 C 86 % 1004,1 hPa 0,0 l/m 0 min 0 min 12 W/m 22,5 km/h (4 Bft) 95,74 %
06.04.2022 07:32 9,1 C 8,3 C 5,6 C 86 % 1004,0 hPa 0,0 l/m 0 min 0 min 13 W/m 12,9 km/h (3 Bft) 100,00 %
06.04.2022 07:34 9,1 C 8,3 C 5,6 C 86 % 1004,1 hPa 0,0 l/m 0 min 0 min 14 W/m 32,2 km/h (5 Bft) 97,87 %
06.04.2022 07:36 9,0 C 8,3 C 5,6 C 86 % 1004,1 hPa 0,0 l/m 0 min 0 min 15 W/m 25,7 km/h (4 Bft) 100,00 %
06.04.2022 07:38 9,0 C 8,3 C 5,6 C 86 % 1004,0 hPa 0,0 l/m 0 min 0 min 16 W/m 22,5 km/h (4 Bft) 97,87 %
06.04.2022 07:40 9,0 C 8,3 C 5,6 C 86 % 1004,0 hPa 0,0 l/m 0 min 0 min 16 W/m 22,5 km/h (4 Bft) 100,00 %
06.04.2022 07:42 9,0 C 8,3 C 5,6 C 87 % 1004,1 hPa 0,0 l/m 0 min 0 min 16 W/m 29,0 km/h (5 Bft) 100,00 %
06.04.2022 07:44 9,0 C 8,3 C 5,6 C 87 % 1004,1 hPa 0,0 l/m 0 min 0 min 17 W/m 22,5 km/h (4 Bft) 97,83 %
06.04.2022 07:46 9,0 C 8,3 C 5,6 C 87 % 1004,1 hPa 0,0 l/m 0 min 0 min 16 W/m 25,7 km/h (4 Bft) 100,00 %
06.04.2022 07:48 9,0 C 8,3 C 5,6 C 87 % 1004,0 hPa 0,0 l/m 0 min 0 min 14 W/m 16,1 km/h (3 Bft) 100,00 %
06.04.2022 07:50 9,0 C 8,3 C 5,6 C 87 % 1004,1 hPa 0,0 l/m 0 min 0 min 15 W/m 22,5 km/h (4 Bft) 100,00 %
06.04.2022 07:52 9,0 C 8,3 C 5,6 C 87 % 1004,1 hPa 0,0 l/m 0 min 0 min 17 W/m 25,7 km/h (4 Bft) 100,00 %
06.04.2022 07:54 9,0 C 8,3 C 6,1 C 87 % 1004,0 hPa 0,0 l/m 0 min 0 min 15 W/m 19,3 km/h (3 Bft) 100,00 %
06.04.2022 07:56 9,0 C 8,3 C 6,1 C 87 % 1003,9 hPa 0,0 l/m 0 min 0 min 12 W/m 22,5 km/h (4 Bft) 100,00 %
06.04.2022 07:58 9,0 C 8,3 C 5,6 C 87 % 1004,0 hPa 0,0 l/m 0 min 0 min 11 W/m 19,3 km/h (3 Bft) 100,00 %
06.04.2022 08:00 9,0 C 8,3 C 5,6 C 87 % 1004,0 hPa 0,0 l/m 0 min 0 min 13 W/m 16,1 km/h (3 Bft) 100,00 %
06.04.2022 08:02 9,0 C 8,3 C 5,6 C 87 % 1004,0 hPa 0,0 l/m 0 min 0 min 15 W/m 25,7 km/h (4 Bft) 100,00 %
06.04.2022 08:04 9,0 C 8,3 C 5,6 C 87 % 1003,9 hPa 0,0 l/m 0 min 0 min 20 W/m 22,5 km/h (4 Bft) 95,74 %
06.04.2022 08:06 9,0 C 8,3 C 6,1 C 86 % 1004,0 hPa 0,0 l/m 0 min 0 min 20 W/m 19,3 km/h (3 Bft) 98,08 %
06.04.2022 08:08 9,0 C 8,3 C 5,6 C 86 % 1004,0 hPa 0,0 l/m 0 min 0 min 19 W/m 19,3 km/h (3 Bft) 100,00 %
06.04.2022 08:10 9,0 C 8,3 C 5,6 C 86 % 1004,0 hPa 0,0 l/m 0 min 0 min 16 W/m 19,3 km/h (3 Bft) 100,00 %
06.04.2022 08:12 9,0 C 8,3 C 5,6 C 86 % 1004,0 hPa 0,0 l/m 0 min 0 min 14 W/m 16,1 km/h (3 Bft) 97,87 %
06.04.2022 08:14 9,0 C 8,3 C 5,6 C 86 % 1004,0 hPa 0,0 l/m 0 min 0 min 12 W/m 16,1 km/h (3 Bft) 100,00 %
06.04.2022 08:16 9,0 C 8,3 C 5,6 C 86 % 1004,0 hPa 0,0 l/m 0 min 0 min 13 W/m 19,3 km/h (3 Bft) 100,00 %
06.04.2022 08:18 9,0 C 8,3 C 5,6 C 86 % 1004,1 hPa 0,0 l/m 0 min 0 min 16 W/m 16,1 km/h (3 Bft) 100,00 %
06.04.2022 08:20 9,0 C 8,3 C 5,6 C 86 % 1004,0 hPa 0,0 l/m 0 min 0 min 10 W/m 12,9 km/h (3 Bft) 100,00 %
06.04.2022 08:22 9,0 C 8,3 C 5,6 C 86 % 1004,0 hPa 0,0 l/m 0 min 0 min 10 W/m 19,3 km/h (3 Bft) 95,74 %
06.04.2022 08:24 9,0 C 8,3 C 5,6 C 86 % 1004,1 hPa 0,0 l/m 0 min 0 min 11 W/m 25,7 km/h (4 Bft) 100,00 %
06.04.2022 08:26 9,0 C 8,3 C 5,6 C 86 % 1004,0 hPa 0,0 l/m 0 min 0 min 15 W/m 22,5 km/h (4 Bft) 100,00 %
06.04.2022 08:28 9,0 C 8,3 C 5,6 C 86 % 1004,0 hPa 0,0 l/m 0 min 0 min 22 W/m 22,5 km/h (4 Bft) 100,00 %
06.04.2022 08:30 8,9 C 8,3 C 5,6 C 86 % 1004,0 hPa 0,0 l/m 0 min 0 min 25 W/m 25,7 km/h (4 Bft) 95,65 %
06.04.2022 08:32 8,9 C 8,3 C 5,6 C 86 % 1004,0 hPa 0,0 l/m 0 min 0 min 18 W/m 29,0 km/h (5 Bft) 97,56 %
06.04.2022 08:34 8,9 C 8,3 C 5,6 C 86 % 1004,1 hPa 0,0 l/m 0 min 0 min 19 W/m 25,7 km/h (4 Bft) 95,74 %
06.04.2022 08:36 8,9 C 8,3 C 5,6 C 87 % 1004,1 hPa 0,0 l/m 0 min 0 min 28 W/m 25,7 km/h (4 Bft) 96,43 %
06.04.2022 08:38 8,9 C 8,3 C 5,6 C 87 % 1004,0 hPa 0,0 l/m 0 min 0 min 33 W/m 32,2 km/h (5 Bft) 94,29 %
06.04.2022 08:40 8,9 C 8,3 C 5,6 C 87 % 1004,0 hPa 0,0 l/m 0 min 0 min 38 W/m 25,7 km/h (4 Bft) 95,74 %
06.04.2022 08:42 8,8 C 8,3 C 5,6 C 87 % 1004,0 hPa 0,0 l/m 0 min 0 min 40 W/m 22,5 km/h (4 Bft) 93,62 %
06.04.2022 08:44 8,8 C 8,3 C 5,6 C 87 % 1004,0 hPa 0,0 l/m 0 min 0 min 42 W/m 25,7 km/h (4 Bft) 95,65 %
06.04.2022 08:46 8,8 C 8,3 C 5,6 C 88 % 1003,9 hPa 0,0 l/m 0 min 0 min 48 W/m 29,0 km/h (5 Bft) 95,74 %
06.04.2022 08:48 8,8 C 8,3 C 5,6 C 88 % 1003,9 hPa 0,0 l/m 0 min 0 min 46 W/m 29,0 km/h (5 Bft) 91,49 %
06.04.2022 08:50 8,8 C 8,3 C 5,6 C 88 % 1003,9 hPa 0,0 l/m 0 min 0 min 28 W/m 19,3 km/h (3 Bft) 95,74 %
06.04.2022 08:52 8,8 C 8,3 C 5,6 C 88 % 1003,9 hPa 0,0 l/m 0 min 0 min 28 W/m 19,3 km/h (3 Bft) 89,36 %
06.04.2022 08:54 8,8 C 8,3 C 5,6 C 88 % 1003,9 hPa 0,0 l/m 0 min 0 min 41 W/m 22,5 km/h (4 Bft) 95,74 %
06.04.2022 08:56 8,7 C 8,3 C 5,6 C 88 % 1003,9 hPa 0,0 l/m 0 min 0 min 50 W/m 16,1 km/h (3 Bft) 93,48 %
06.04.2022 08:58 8,7 C 8,3 C 5,6 C 88 % 1003,9 hPa 0,0 l/m 0 min 0 min 43 W/m 32,2 km/h (5 Bft) 91,49 %
06.04.2022 09:00 8,7 C 8,3 C 5,6 C 89 % 1003,9 hPa 0,0 l/m 0 min 0 min 40 W/m 19,3 km/h (3 Bft) 91,49 %
06.04.2022 09:02 8,7 C 8,3 C 5,6 C 89 % 1003,9 hPa 0,0 l/m 0 min 0 min 31 W/m 22,5 km/h (4 Bft) 95,74 %
06.04.2022 09:04 8,7 C 8,3 C 5,6 C 89 % 1003,8 hPa 0,0 l/m 0 min 0 min 46 W/m 32,2 km/h (5 Bft) 94,00 %
06.04.2022 09:06 8,7 C 8,3 C 5,6 C 89 % 1003,8 hPa 0,0 l/m 0 min 0 min 62 W/m 32,2 km/h (5 Bft) 93,48 %
06.04.2022 09:08 8,7 C 8,3 C 5,6 C 89 % 1003,8 hPa 0,0 l/m 0 min 0 min 74 W/m 16,1 km/h (3 Bft) 93,62 %
06.04.2022 09:10 8,7 C 8,3 C 5,6 C 89 % 1003,8 hPa 0,0 l/m 0 min 0 min 92 W/m 22,5 km/h (4 Bft) 95,74 %
06.04.2022 09:12 8,7 C 8,3 C 5,6 C 89 % 1003,8 hPa 0,0 l/m 0 min 0 min 103 W/m 16,1 km/h (3 Bft) 93,62 %
06.04.2022 09:14 8,7 C 8,3 C 5,6 C 89 % 1003,8 hPa 0,0 l/m 0 min 0 min 100 W/m 25,7 km/h (4 Bft) 93,62 %
06.04.2022 09:16 8,7 C 8,3 C 5,6 C 89 % 1003,7 hPa 0,0 l/m 0 min 0 min 71 W/m 29,0 km/h (5 Bft) 91,49 %
06.04.2022 09:18 8,8 C 8,3 C 5,6 C 89 % 1003,7 hPa 0,0 l/m 0 min 0 min 55 W/m 25,7 km/h (4 Bft) 93,48 %
06.04.2022 09:20 8,8 C 8,3 C 6,1 C 89 % 1003,8 hPa 0,0 l/m 0 min 0 min 52 W/m 19,3 km/h (3 Bft) 95,74 %
06.04.2022 09:22 8,8 C 8,3 C 5,6 C 88 % 1003,8 hPa 0,0 l/m 0 min 0 min 45 W/m 9,7 km/h (2 Bft) 95,74 %
06.04.2022 09:24 8,8 C 8,3 C 5,6 C 88 % 1003,7 hPa 0,0 l/m 0 min 0 min 43 W/m 25,7 km/h (4 Bft) 97,87 %
06.04.2022 09:26 8,8 C 8,3 C 6,1 C 88 % 1003,7 hPa 0,0 l/m 0 min 0 min 56 W/m 45,1 km/h (6 Bft) 95,74 %
06.04.2022 09:28 8,8 C 8,3 C 6,1 C 88 % 1003,6 hPa 0,0 l/m 0 min 0 min 66 W/m 22,5 km/h (4 Bft) 97,87 %
06.04.2022 09:30 8,8 C 8,3 C 6,1 C 88 % 1003,7 hPa 0,0 l/m 0 min 0 min 76 W/m 38,6 km/h (5 Bft) 97,83 %
06.04.2022 09:32 8,9 C 8,3 C 6,1 C 88 % 1003,6 hPa 0,0 l/m 0 min 0 min 76 W/m 16,1 km/h (3 Bft) 97,87 %
06.04.2022 09:34 8,9 C 8,3 C 6,1 C 88 % 1003,6 hPa 0,0 l/m 0 min 0 min 65 W/m 19,3 km/h (3 Bft) 97,87 %
06.04.2022 09:36 8,9 C 8,3 C 6,1 C 88 % 1003,6 hPa 0,0 l/m 0 min 0 min 64 W/m 25,7 km/h (4 Bft) 97,87 %
06.04.2022 09:38 8,9 C 8,3 C 6,1 C 88 % 1003,6 hPa 0,0 l/m 0 min 0 min 72 W/m 22,5 km/h (4 Bft) 100,00 %
06.04.2022 09:40 8,9 C 8,3 C 6,1 C 88 % 1003,6 hPa 0,0 l/m 0 min 0 min 96 W/m 25,7 km/h (4 Bft) 100,00 %
06.04.2022 09:42 8,9 C 8,3 C 6,1 C 88 % 1003,5 hPa 0,0 l/m 0 min 0 min 115 W/m 19,3 km/h (3 Bft) 97,83 %
06.04.2022 09:44 8,9 C 8,3 C 6,1 C 88 % 1003,6 hPa 0,0 l/m 0 min 0 min 119 W/m 25,7 km/h (4 Bft) 100,00 %
06.04.2022 09:46 8,9 C 8,9 C 6,1 C 88 % 1003,5 hPa 0,0 l/m 0 min 0 min 127 W/m 29,0 km/h (5 Bft) 100,00 %
06.04.2022 09:48 8,9 C 8,9 C 6,1 C 88 % 1003,5 hPa 0,0 l/m 0 min 0 min 128 W/m 29,0 km/h (5 Bft) 97,87 %
06.04.2022 09:50 8,9 C 8,9 C 6,1 C 88 % 1003,6 hPa 0,0 l/m 0 min 0 min 116 W/m 32,2 km/h (5 Bft) 100,00 %
06.04.2022 09:52 8,9 C 8,3 C 6,1 C 88 % 1003,5 hPa 0,0 l/m 0 min 0 min 92 W/m 41,8 km/h (6 Bft) 97,87 %
06.04.2022 09:54 8,9 C 8,3 C 6,1 C 87 % 1003,6 hPa 0,0 l/m 0 min 0 min 107 W/m 29,0 km/h (5 Bft) 100,00 %
06.04.2022 09:56 8,9 C 8,9 C 6,1 C 87 % 1003,5 hPa 0,0 l/m 0 min 0 min 99 W/m 35,4 km/h (5 Bft) 100,00 %
06.04.2022 09:58 8,9 C 8,3 C 6,1 C 87 % 1003,6 hPa 0,0 l/m 0 min 0 min 104 W/m 54,7 km/h (7 Bft) 100,00 %
06.04.2022 10:00 8,9 C 8,9 C 6,1 C 87 % 1003,6 hPa 0,0 l/m 0 min 0 min 116 W/m 22,5 km/h (4 Bft) 100,00 %
06.04.2022 10:02 8,9 C 8,9 C 6,1 C 87 % 1003,5 hPa 0,0 l/m 0 min 0 min 117 W/m 29,0 km/h (5 Bft) 97,56 %
06.04.2022 10:04 9,0 C 8,9 C 6,1 C 87 % 1003,6 hPa 0,0 l/m 0 min 0 min 112 W/m 29,0 km/h (5 Bft) 100,00 %
06.04.2022 10:06 9,0 C 8,9 C 6,1 C 87 % 1003,5 hPa 0,0 l/m 0 min 0 min 100 W/m 29,0 km/h (5 Bft) 100,00 %
06.04.2022 10:08 9,0 C 8,9 C 6,1 C 87 % 1003,5 hPa 0,0 l/m 0 min 0 min 90 W/m 22,5 km/h (4 Bft) 97,87 %
06.04.2022 10:10 9,1 C 8,9 C 6,1 C 87 % 1003,5 hPa 0,0 l/m 0 min 0 min 110 W/m 32,2 km/h (5 Bft) 100,00 %
06.04.2022 10:12 9,1 C 8,9 C 6,1 C 86 % 1003,5 hPa 0,0 l/m 0 min 0 min 117 W/m 25,7 km/h (4 Bft) 97,87 %
06.04.2022 10:14 9,1 C 8,9 C 6,1 C 86 % 1003,5 hPa 0,0 l/m 0 min 0 min 103 W/m 16,1 km/h (3 Bft) 100,00 %
06.04.2022 10:16 9,1 C 8,9 C 6,1 C 86 % 1003,5 hPa 0,0 l/m 0 min 0 min 91 W/m 19,3 km/h (3 Bft) 100,00 %
06.04.2022 10:18 9,1 C 8,9 C 6,1 C 86 % 1003,4 hPa 0,0 l/m 0 min 0 min 112 W/m 16,1 km/h (3 Bft) 97,87 %
06.04.2022 10:20 9,2 C 8,9 C 6,1 C 86 % 1003,4 hPa 0,0 l/m 0 min 0 min 130 W/m 19,3 km/h (3 Bft) 100,00 %
06.04.2022 10:22 9,2 C 8,9 C 6,1 C 86 % 1003,4 hPa 0,0 l/m 0 min 0 min 120 W/m 35,4 km/h (5 Bft) 100,00 %
06.04.2022 10:24 9,2 C 8,9 C 6,1 C 86 % 1003,4 hPa 0,0 l/m 0 min 0 min 131 W/m 22,5 km/h (4 Bft) 100,00 %
06.04.2022 10:26 9,2 C 8,9 C 6,7 C 85 % 1003,4 hPa 0,0 l/m 0 min 0 min 133 W/m 25,7 km/h (4 Bft) 98,28 %
06.04.2022 10:28 9,2 C 9,4 C 6,7 C 85 % 1003,4 hPa 0,0 l/m 0 min 0 min 145 W/m 29,0 km/h (5 Bft) 100,00 %
06.04.2022 10:30 9,3 C 9,4 C 6,7 C 85 % 1003,4 hPa 0,0 l/m 0 min 0 min 175 W/m 19,3 km/h (3 Bft) 100,00 %
06.04.2022 10:32 9,3 C 9,4 C 6,7 C 85 % 1003,3 hPa 0,0 l/m 0 min 0 min 178 W/m 25,7 km/h (4 Bft) 100,00 %
06.04.2022 10:34 9,4 C 9,4 C 6,7 C 84 % 1003,3 hPa 0,0 l/m 0 min 0 min 206 W/m 22,5 km/h (4 Bft) 100,00 %
06.04.2022 10:36 9,4 C 9,4 C 6,7 C 84 % 1003,2 hPa 0,0 l/m 0 min 0 min 206 W/m 19,3 km/h (3 Bft) 100,00 %
06.04.2022 10:38 9,5 C 10,0 C 6,7 C 84 % 1003,2 hPa 0,0 l/m 0 min 0 min 190 W/m 25,7 km/h (4 Bft) 100,00 %
06.04.2022 10:40 9,6 C 10,0 C 6,7 C 83 % 1003,1 hPa 0,0 l/m 0 min 0 min 188 W/m 29,0 km/h (5 Bft) 100,00 %
06.04.2022 10:42 9,6 C 9,4 C 6,7 C 82 % 1003,1 hPa 0,0 l/m 0 min 0 min 197 W/m 32,2 km/h (5 Bft) 98,00 %
06.04.2022 10:44 9,7 C 10,0 C 6,7 C 82 % 1003,1 hPa 0,0 l/m 0 min 0 min 215 W/m 32,2 km/h (5 Bft) 100,00 %
06.04.2022 10:46 9,7 C 10,0 C 7,2 C 81 % 1003,1 hPa 0,0 l/m 0 min 0 min 217 W/m 32,2 km/h (5 Bft) 100,00 %
06.04.2022 10:48 9,8 C 10,0 C 7,2 C 81 % 1003,1 hPa 0,0 l/m 0 min 0 min 203 W/m 29,0 km/h (5 Bft) 100,00 %
06.04.2022 10:50 9,8 C 10,0 C 7,2 C 81 % 1003,2 hPa 0,0 l/m 0 min 0 min 177 W/m 29,0 km/h (5 Bft) 97,96 %
06.04.2022 10:52 9,8 C 10,0 C 7,2 C 80 % 1003,1 hPa 0,0 l/m 0 min 0 min 172 W/m 32,2 km/h (5 Bft) 100,00 %
06.04.2022 10:54 9,8 C 10,0 C 7,2 C 80 % 1003,1 hPa 0,0 l/m 0 min 0 min 182 W/m 32,2 km/h (5 Bft) 97,87 %
06.04.2022 10:56 9,9 C 10,0 C 7,2 C 80 % 1003,1 hPa 0,0 l/m 0 min 0 min 178 W/m 41,8 km/h (6 Bft) 100,00 %
06.04.2022 10:58 9,9 C 10,0 C 7,2 C 79 % 1003,1 hPa 0,0 l/m 0 min 0 min 170 W/m 16,1 km/h (3 Bft) 98,18 %
06.04.2022 11:00 9,9 C 10,0 C 7,2 C 79 % 1003,2 hPa 0,0 l/m 0 min 0 min 167 W/m 45,1 km/h (6 Bft) 97,14 %
06.04.2022 11:02 9,9 C 10,0 C 6,7 C 79 % 1003,3 hPa 0,0 l/m 0 min 0 min 183 W/m 35,4 km/h (5 Bft) 98,00 %
06.04.2022 11:04 9,9 C 10,0 C 6,7 C 79 % 1003,2 hPa 0,0 l/m 0 min 0 min 199 W/m 38,6 km/h (5 Bft) 97,96 %
06.04.2022 11:06 9,9 C 10,0 C 6,7 C 79 % 1003,2 hPa 0,0 l/m 0 min 0 min 179 W/m 35,4 km/h (5 Bft) 96,30 %
06.04.2022 11:08 9,9 C 10,0 C 7,2 C 79 % 1003,2 hPa 0,0 l/m 0 min 0 min 188 W/m 19,3 km/h (3 Bft) 95,74 %
06.04.2022 11:10 10,0 C 10,0 C 7,2 C 79 % 1003,3 hPa 0,0 l/m 0 min 0 min 188 W/m 32,2 km/h (5 Bft) 93,62 %
06.04.2022 11:12 10,0 C 10,0 C 7,2 C 79 % 1003,2 hPa 0,0 l/m 0 min 0 min 155 W/m 16,1 km/h (3 Bft) 97,37 %
06.04.2022 11:14 10,0 C 10,0 C 7,2 C 79 % 1003,3 hPa 0,0 l/m 0 min 0 min 140 W/m 19,3 km/h (3 Bft) 97,92 %
06.04.2022 11:16 10,0 C 10,0 C 6,7 C 78 % 1003,2 hPa 0,0 l/m 0 min 0 min 142 W/m 32,2 km/h (5 Bft) 97,87 %
06.04.2022 11:18 10,0 C 10,0 C 6,7 C 79 % 1003,1 hPa 0,0 l/m 0 min 0 min 178 W/m 19,3 km/h (3 Bft) 90,74 %
06.04.2022 11:20 10,0 C 10,0 C 7,2 C 79 % 1003,1 hPa 0,0 l/m 0 min 0 min 179 W/m 29,0 km/h (5 Bft) 94,74 %
06.04.2022 11:22 10,1 C 10,0 C 7,2 C 79 % 1003,2 hPa 0,0 l/m 0 min 0 min 194 W/m 22,5 km/h (4 Bft) 95,92 %
06.04.2022 11:24 10,1 C 10,0 C 7,2 C 79 % 1003,1 hPa 0,0 l/m 0 min 0 min 166 W/m 32,2 km/h (5 Bft) 95,74 %
06.04.2022 11:26 10,1 C 10,0 C 7,2 C 79 % 1003,2 hPa 0,0 l/m 0 min 0 min 150 W/m 16,1 km/h (3 Bft) 95,65 %
06.04.2022 11:28 10,1 C 10,0 C 7,2 C 79 % 1003,2 hPa 0,0 l/m 0 min 0 min 143 W/m 29,0 km/h (5 Bft) 94,44 %
06.04.2022 11:30 10,1 C 10,0 C 6,7 C 78 % 1003,2 hPa 0,0 l/m 0 min 0 min 129 W/m 35,4 km/h (5 Bft) 92,11 %
06.04.2022 11:32 10,1 C 10,0 C 6,7 C 78 % 1003,2 hPa 0,0 l/m 0 min 0 min 152 W/m 38,6 km/h (5 Bft) 91,84 %
06.04.2022 11:34 10,1 C 10,0 C 6,7 C 78 % 1003,2 hPa 0,0 l/m 0 min 0 min 143 W/m 19,3 km/h (3 Bft) 89,36 %
06.04.2022 11:36 10,1 C 10,0 C 6,7 C 78 % 1003,1 hPa 0,0 l/m 0 min 0 min 134 W/m 19,3 km/h (3 Bft) 96,23 %
06.04.2022 11:38 10,1 C 10,0 C 6,7 C 78 % 1003,2 hPa 0,0 l/m 0 min 0 min 121 W/m 22,5 km/h (4 Bft) 95,74 %
06.04.2022 11:40 10,1 C 10,0 C 6,7 C 78 % 1003,2 hPa 0,0 l/m 0 min 0 min 118 W/m 25,7 km/h (4 Bft) 95,74 %
06.04.2022 11:42 10,1 C 10,0 C 6,7 C 78 % 1003,2 hPa 0,0 l/m 0 min 0 min 132 W/m 25,7 km/h (4 Bft) 92,11 %
06.04.2022 11:44 10,1 C 10,0 C 6,7 C 78 % 1003,3 hPa 0,0 l/m 0 min 0 min 127 W/m 19,3 km/h (3 Bft) 95,92 %
06.04.2022 11:46 10,1 C 10,0 C 6,7 C 78 % 1003,3 hPa 0,0 l/m 0 min 0 min 123 W/m 32,2 km/h (5 Bft) 95,74 %
06.04.2022 11:48 10,1 C 10,0 C 6,7 C 78 % 1003,3 hPa 0,0 l/m 0 min 0 min 116 W/m 25,7 km/h (4 Bft) 96,23 %
06.04.2022 11:50 10,1 C 10,0 C 6,7 C 78 % 1003,3 hPa 0,0 l/m 0 min 0 min 109 W/m 29,0 km/h (5 Bft) 94,74 %
06.04.2022 11:52 10,1 C 10,0 C 6,7 C 78 % 1003,1 hPa 0,0 l/m 0 min 0 min 104 W/m 25,7 km/h (4 Bft) 91,84 %
06.04.2022 11:54 10,1 C 10,0 C 6,7 C 79 % 1003,3 hPa 0,0 l/m 0 min 0 min 109 W/m 32,2 km/h (5 Bft) 95,74 %
06.04.2022 11:56 10,1 C 9,4 C 6,7 C 78 % 1003,2 hPa 0,0 l/m 0 min 0 min 129 W/m 29,0 km/h (5 Bft) 96,30 %
06.04.2022 11:58 10,0 C 9,4 C 6,7 C 79 % 1003,2 hPa 0,0 l/m 0 min 0 min 125 W/m 29,0 km/h (5 Bft) 94,74 %
06.04.2022 12:00 10,0 C 9,4 C 6,7 C 79 % 1003,1 hPa 0,0 l/m 0 min 0 min 130 W/m 25,7 km/h (4 Bft) 96,00 %
06.04.2022 12:02 10,0 C 9,4 C 6,7 C 79 % 1003,2 hPa 0,0 l/m 0 min 0 min 126 W/m 19,3 km/h (3 Bft) 93,88 %
06.04.2022 12:04 10,0 C 9,4 C 6,7 C 79 % 1003,1 hPa 0,0 l/m 0 min 0 min 120 W/m 22,5 km/h (4 Bft) 94,00 %
06.04.2022 12:08 10,0 C 9,4 C 6,7 C 79 % 1003,2 hPa 0,0 l/m 0 min 0 min 134 W/m 35,4 km/h (5 Bft) 96,43 %
06.04.2022 12:10 10,0 C 10,0 C 6,7 C 79 % 1003,1 hPa 0,0 l/m 0 min 0 min 157 W/m 22,5 km/h (4 Bft) 97,87 %
06.04.2022 12:12 10,1 C 10,0 C 6,7 C 80 % 1003,1 hPa 0,0 l/m 0 min 0 min 177 W/m 29,0 km/h (5 Bft) 98,15 %
06.04.2022 12:14 10,1 C 10,0 C 6,7 C 80 % 1003,0 hPa 0,0 l/m 0 min 0 min 173 W/m 22,5 km/h (4 Bft) 97,37 %
06.04.2022 12:16 10,1 C 10,0 C 6,7 C 80 % 1003,0 hPa 0,0 l/m 0 min 0 min 144 W/m 29,0 km/h (5 Bft) 96,55 %
06.04.2022 12:18 10,1 C 10,0 C 6,7 C 80 % 1003,0 hPa 0,0 l/m 0 min 0 min 151 W/m 22,5 km/h (4 Bft) 97,30 %
06.04.2022 12:20 10,1 C 10,0 C 6,7 C 79 % 1003,0 hPa 0,0 l/m 0 min 0 min 137 W/m 25,7 km/h (4 Bft) 97,87 %
06.04.2022 12:22 10,1 C 10,0 C 6,7 C 79 % 1002,9 hPa 0,0 l/m 0 min 0 min 151 W/m 32,2 km/h (5 Bft) 98,15 %
06.04.2022 12:24 10,1 C 10,0 C 6,7 C 80 % 1002,9 hPa 0,0 l/m 0 min 0 min 144 W/m 25,7 km/h (4 Bft) 100,00 %
06.04.2022 12:26 10,1 C 10,0 C 6,7 C 79 % 1003,0 hPa 0,0 l/m 0 min 0 min 140 W/m 22,5 km/h (4 Bft) 100,00 %
06.04.2022 12:28 10,1 C 10,0 C 6,7 C 80 % 1002,9 hPa 0,0 l/m 0 min 0 min 151 W/m 25,7 km/h (4 Bft) 100,00 %
06.04.2022 12:30 10,1 C 10,0 C 6,7 C 80 % 1002,8 hPa 0,0 l/m 0 min 0 min 149 W/m 25,7 km/h (4 Bft) 100,00 %
06.04.2022 12:32 10,1 C 10,0 C 6,7 C 79 % 1002,9 hPa 0,0 l/m 0 min 0 min 170 W/m 45,1 km/h (6 Bft) 98,00 %
06.04.2022 12:34 10,2 C 10,0 C 6,7 C 79 % 1002,9 hPa 0,0 l/m 0 min 0 min 170 W/m 45,1 km/h (6 Bft) 100,00 %
06.04.2022 12:36 10,2 C 10,0 C 6,7 C 79 % 1002,8 hPa 0,0 l/m 0 min 0 min 176 W/m 32,2 km/h (5 Bft) 100,00 %
06.04.2022 12:38 10,2 C 10,0 C 6,7 C 80 % 1003,0 hPa 0,0 l/m 0 min 0 min 134 W/m 32,2 km/h (5 Bft) 97,87 %
06.04.2022 12:40 10,2 C 10,0 C 6,7 C 80 % 1002,9 hPa 0,0 l/m 0 min 0 min 139 W/m 38,6 km/h (5 Bft) 100,00 %
06.04.2022 12:42 10,2 C 10,0 C 6,7 C 80 % 1002,9 hPa 0,0 l/m 0 min 0 min 141 W/m 29,0 km/h (5 Bft) 100,00 %
06.04.2022 12:44 10,2 C 10,0 C 6,7 C 80 % 1002,8 hPa 0,0 l/m 0 min 0 min 158 W/m 19,3 km/h (3 Bft) 100,00 %
06.04.2022 12:46 10,2 C 10,0 C 7,2 C 80 % 1002,8 hPa 0,0 l/m 0 min 0 min 171 W/m 25,7 km/h (4 Bft) 97,30 %
06.04.2022 12:48 10,2 C 10,0 C 6,7 C 80 % 1002,8 hPa 0,0 l/m 0 min 0 min 165 W/m 32,2 km/h (5 Bft) 100,00 %
06.04.2022 12:50 10,2 C 10,0 C 7,2 C 80 % 1002,7 hPa 0,0 l/m 0 min 0 min 187 W/m 19,3 km/h (3 Bft) 100,00 %
06.04.2022 12:52 10,2 C 10,0 C 7,2 C 80 % 1002,8 hPa 0,0 l/m 0 min 0 min 178 W/m 38,6 km/h (5 Bft) 98,00 %
06.04.2022 12:54 10,2 C 10,0 C 7,2 C 80 % 1002,8 hPa 0,0 l/m 0 min 0 min 165 W/m 22,5 km/h (4 Bft) 100,00 %
06.04.2022 12:56 10,3 C 10,0 C 7,2 C 80 % 1002,8 hPa 0,0 l/m 0 min 0 min 189 W/m 19,3 km/h (3 Bft) 100,00 %
06.04.2022 12:58 10,3 C 10,0 C 7,2 C 80 % 1002,9 hPa 0,0 l/m 0 min 0 min 189 W/m 22,5 km/h (4 Bft) 96,00 %
06.04.2022 13:00 10,3 C 10,0 C 7,2 C 80 % 1002,8 hPa 0,0 l/m 0 min 0 min 179 W/m 38,6 km/h (5 Bft) 100,00 %
06.04.2022 13:02 10,3 C 10,0 C 7,2 C 80 % 1002,7 hPa 0,0 l/m 0 min 0 min 193 W/m 32,2 km/h (5 Bft) 97,37 %
06.04.2022 13:04 10,3 C 10,0 C 7,2 C 80 % 1002,7 hPa 0,0 l/m 0 min 0 min 171 W/m 25,7 km/h (4 Bft) 100,00 %
06.04.2022 13:06 10,3 C 10,0 C 7,2 C 80 % 1002,7 hPa 0,0 l/m 0 min 0 min 163 W/m 35,4 km/h (5 Bft) 96,00 %
06.04.2022 13:08 10,3 C 10,0 C 7,2 C 80 % 1002,7 hPa 0,0 l/m 0 min 0 min 147 W/m 38,6 km/h (5 Bft) 97,87 %
06.04.2022 13:10 10,3 C 10,0 C 6,7 C 80 % 1002,7 hPa 0,0 l/m 0 min 0 min 155 W/m 32,2 km/h (5 Bft) 97,83 %
06.04.2022 13:12 10,3 C 10,0 C 6,7 C 80 % 1002,6 hPa 0,0 l/m 0 min 0 min 146 W/m 38,6 km/h (5 Bft) 95,92 %
06.04.2022 13:14 10,3 C 10,0 C 6,7 C 80 % 1002,7 hPa 0,0 l/m 0 min 0 min 149 W/m 35,4 km/h (5 Bft) 97,14 %
06.04.2022 13:16 10,3 C 10,0 C 6,7 C 81 % 1002,7 hPa 0,0 l/m 0 min 0 min 144 W/m 25,7 km/h (4 Bft) 98,15 %
06.04.2022 13:18 10,2 C 10,0 C 6,7 C 81 % 1002,7 hPa 0,0 l/m 0 min 0 min 145 W/m 38,6 km/h (5 Bft) 96,00 %
06.04.2022 13:20 10,2 C 10,0 C 6,7 C 81 % 1002,7 hPa 0,0 l/m 0 min 0 min 142 W/m 19,3 km/h (3 Bft) 95,83 %
06.04.2022 13:22 10,2 C 10,0 C 6,7 C 81 % 1002,6 hPa 0,0 l/m 0 min 0 min 152 W/m 38,6 km/h (5 Bft) 100,00 %
06.04.2022 13:24 10,1 C 10,0 C 6,7 C 81 % 1002,7 hPa 0,0 l/m 0 min 0 min 154 W/m 35,4 km/h (5 Bft) 96,23 %
06.04.2022 13:26 10,1 C 10,0 C 6,7 C 82 % 1002,6 hPa 0,0 l/m 0 min 0 min 141 W/m 41,8 km/h (6 Bft) 98,00 %
06.04.2022 13:28 10,1 C 10,0 C 6,7 C 81 % 1002,7 hPa 0,0 l/m 0 min 0 min 130 W/m 45,1 km/h (6 Bft) 97,96 %
06.04.2022 13:30 10,1 C 10,0 C 6,7 C 82 % 1002,6 hPa 0,0 l/m 0 min 0 min 125 W/m 38,6 km/h (5 Bft) 97,14 %
06.04.2022 13:32 10,1 C 10,0 C 6,7 C 82 % 1002,7 hPa 0,0 l/m 0 min 0 min 123 W/m 35,4 km/h (5 Bft) 98,15 %
06.04.2022 13:34 10,1 C 10,0 C 6,7 C 81 % 1002,6 hPa 0,0 l/m 0 min 0 min 124 W/m 22,5 km/h (4 Bft) 97,96 %
06.04.2022 13:36 10,1 C 10,0 C 6,7 C 81 % 1002,6 hPa 0,0 l/m 0 min 0 min 118 W/m 25,7 km/h (4 Bft) 97,96 %
06.04.2022 13:38 10,2 C 10,0 C 6,7 C 81 % 1002,5 hPa 0,0 l/m 0 min 0 min 123 W/m 32,2 km/h (5 Bft) 97,87 %
06.04.2022 13:40 10,2 C 10,0 C 6,7 C 81 % 1002,5 hPa 0,0 l/m 0 min 0 min 123 W/m 32,2 km/h (5 Bft) 100,00 %
06.04.2022 13:42 10,2 C 10,0 C 6,7 C 81 % 1002,5 hPa 0,0 l/m 0 min 0 min 142 W/m 51,5 km/h (7 Bft) 100,00 %
06.04.2022 13:44 10,3 C 10,0 C 6,7 C 81 % 1002,4 hPa 0,0 l/m 0 min 0 min 140 W/m 25,7 km/h (4 Bft) 98,15 %
06.04.2022 13:46 10,3 C 10,0 C 7,2 C 80 % 1002,4 hPa 0,0 l/m 0 min 0 min 126 W/m 54,7 km/h (7 Bft) 100,00 %
06.04.2022 13:48 10,4 C 10,0 C 7,2 C 80 % 1002,3 hPa 0,0 l/m 0 min 0 min 106 W/m 22,5 km/h (4 Bft) 100,00 %
06.04.2022 13:50 10,4 C 10,0 C 7,2 C 79 % 1002,4 hPa 0,0 l/m 0 min 0 min 92 W/m 29,0 km/h (5 Bft) 100,00 %
06.04.2022 13:52 10,4 C 10,0 C 7,2 C 79 % 1002,4 hPa 0,0 l/m 0 min 0 min 97 W/m 29,0 km/h (5 Bft) 100,00 %
06.04.2022 13:54 10,4 C 10,0 C 7,2 C 79 % 1002,4 hPa 0,0 l/m 0 min 0 min 103 W/m 38,6 km/h (5 Bft) 100,00 %
06.04.2022 13:56 10,4 C 10,0 C 7,2 C 79 % 1002,4 hPa 0,0 l/m 0 min 0 min 106 W/m 25,7 km/h (4 Bft) 97,92 %
06.04.2022 13:58 10,5 C 10,0 C 7,2 C 79 % 1002,4 hPa 0,0 l/m 0 min 0 min 105 W/m 54,7 km/h (7 Bft) 100,00 %
06.04.2022 14:00 10,5 C 10,0 C 7,2 C 79 % 1002,3 hPa 0,0 l/m 0 min 0 min 119 W/m 38,6 km/h (5 Bft) 97,87 %
06.04.2022 14:02 10,5 C 10,0 C 7,2 C 79 % 1002,3 hPa 0,0 l/m 0 min 0 min 117 W/m 45,1 km/h (6 Bft) 98,00 %
06.04.2022 14:04 10,5 C 10,0 C 7,2 C 79 % 1002,3 hPa 0,0 l/m 0 min 0 min 108 W/m 41,8 km/h (6 Bft) 96,00 %
06.04.2022 14:06 10,5 C 10,0 C 7,2 C 79 % 1002,2 hPa 0,0 l/m 0 min 0 min 94 W/m 35,4 km/h (5 Bft) 97,87 %
06.04.2022 14:08 10,5 C 10,0 C 7,2 C 78 % 1002,2 hPa 0,0 l/m 0 min 0 min 95 W/m 41,8 km/h (6 Bft) 97,83 %
06.04.2022 14:10 10,5 C 10,0 C 6,7 C 79 % 1002,2 hPa 0,0 l/m 0 min 0 min 88 W/m 22,5 km/h (4 Bft) 95,74 %
06.04.2022 14:12 10,6 C 10,0 C 6,7 C 79 % 1002,2 hPa 0,0 l/m 0 min 0 min 74 W/m 32,2 km/h (5 Bft) 97,62 %
06.04.2022 14:14 10,6 C 10,0 C 6,7 C 79 % 1002,2 hPa 0,0 l/m 0 min 0 min 75 W/m 29,0 km/h (5 Bft) 96,00 %
06.04.2022 14:16 10,6 C 10,0 C 6,7 C 78 % 1002,2 hPa 0,0 l/m 0 min 0 min 87 W/m 38,6 km/h (5 Bft) 95,92 %
06.04.2022 14:18 10,6 C 10,0 C 7,2 C 78 % 1002,2 hPa 0,0 l/m 0 min 0 min 99 W/m 25,7 km/h (4 Bft) 97,87 %
06.04.2022 14:20 10,6 C 10,0 C 7,2 C 78 % 1002,0 hPa 0,0 l/m 0 min 0 min 106 W/m 32,2 km/h (5 Bft) 97,62 %
06.04.2022 14:22 10,6 C 10,0 C 7,2 C 78 % 1002,1 hPa 0,0 l/m 0 min 0 min 130 W/m 32,2 km/h (5 Bft) 95,92 %
06.04.2022 14:24 10,6 C 10,0 C 7,2 C 78 % 1002,0 hPa 0,0 l/m 0 min 0 min 133 W/m 35,4 km/h (5 Bft) 97,96 %
06.04.2022 14:26 10,6 C 10,6 C 7,2 C 78 % 1002,0 hPa 0,0 l/m 0 min 0 min 127 W/m 29,0 km/h (5 Bft) 95,74 %
06.04.2022 14:28 10,7 C 10,6 C 7,2 C 78 % 1001,9 hPa 0,0 l/m 0 min 0 min 125 W/m 35,4 km/h (5 Bft) 95,24 %
06.04.2022 14:30 10,7 C 10,6 C 7,2 C 79 % 1001,9 hPa 0,0 l/m 0 min 2 min 158 W/m 19,3 km/h (3 Bft) 98,00 %
06.04.2022 14:32 10,7 C 10,6 C 6,7 C 80 % 1001,9 hPa 0,0 l/m 0 min 2 min 157 W/m 25,7 km/h (4 Bft) 95,83 %
06.04.2022 14:34 10,7 C 10,0 C 6,1 C 81 % 1001,9 hPa 0,0 l/m 0 min 2 min 160 W/m 41,8 km/h (6 Bft) 97,87 %
06.04.2022 14:36 10,7 C 10,0 C 6,1 C 80 % 1001,8 hPa 0,0 l/m 0 min 2 min 149 W/m 29,0 km/h (5 Bft) 97,62 %
06.04.2022 14:38 10,7 C 10,0 C 6,1 C 81 % 1001,9 hPa 0,0 l/m 0 min 2 min 159 W/m 41,8 km/h (6 Bft) 95,74 %
06.04.2022 14:40 10,6 C 10,0 C 5,6 C 81 % 1001,8 hPa 0,0 l/m 0 min 2 min 163 W/m 51,5 km/h (7 Bft) 95,74 %
06.04.2022 14:42 10,6 C 10,0 C 5,6 C 81 % 1001,9 hPa 0,0 l/m 0 min 2 min 151 W/m 32,2 km/h (5 Bft) 96,00 %
06.04.2022 14:44 10,6 C 10,0 C 5,6 C 81 % 1001,9 hPa 0,0 l/m 0 min 2 min 147 W/m 22,5 km/h (4 Bft) 93,75 %
06.04.2022 14:46 10,6 C 10,0 C 5,6 C 81 % 1001,9 hPa 0,0 l/m 0 min 2 min 141 W/m 48,3 km/h (6 Bft) 95,74 %
06.04.2022 14:48 10,6 C 10,0 C 5,6 C 81 % 1001,8 hPa 0,0 l/m 0 min 2 min 135 W/m 32,2 km/h (5 Bft) 95,24 %
06.04.2022 14:50 10,6 C 10,0 C 6,1 C 81 % 1001,8 hPa 0,0 l/m 0 min 2 min 145 W/m 29,0 km/h (5 Bft) 94,00 %
06.04.2022 14:52 10,6 C 10,0 C 6,7 C 81 % 1001,7 hPa 0,0 l/m 0 min 2 min 153 W/m 29,0 km/h (5 Bft) 95,92 %
06.04.2022 14:54 10,6 C 10,0 C 6,7 C 80 % 1001,8 hPa 0,0 l/m 0 min 2 min 135 W/m 35,4 km/h (5 Bft) 95,74 %
06.04.2022 14:56 10,6 C 10,0 C 6,7 C 80 % 1001,8 hPa 0,0 l/m 0 min 2 min 134 W/m 29,0 km/h (5 Bft) 97,56 %
06.04.2022 14:58 10,6 C 10,0 C 6,7 C 81 % 1001,8 hPa 0,0 l/m 0 min 2 min 157 W/m 38,6 km/h (5 Bft) 96,00 %
06.04.2022 15:00 10,6 C 10,0 C 6,7 C 81 % 1001,8 hPa 0,0 l/m 0 min 2 min 140 W/m 19,3 km/h (3 Bft) 98,00 %
06.04.2022 15:02 10,6 C 10,0 C 6,7 C 82 % 1001,7 hPa 0,0 l/m 0 min 2 min 154 W/m 19,3 km/h (3 Bft) 98,00 %
06.04.2022 15:04 10,6 C 10,6 C 6,7 C 82 % 1001,7 hPa 0,0 l/m 0 min 2 min 180 W/m 25,7 km/h (4 Bft) 94,74 %
06.04.2022 15:06 10,6 C 10,6 C 6,7 C 82 % 1001,7 hPa 0,0 l/m 0 min 0 min 159 W/m 22,5 km/h (4 Bft) 93,75 %
06.04.2022 15:08 10,6 C 10,6 C 6,7 C 81 % 1001,7 hPa 0,0 l/m 0 min 0 min 136 W/m 41,8 km/h (6 Bft) 95,74 %
06.04.2022 15:10 10,6 C 10,6 C 6,7 C 80 % 1001,6 hPa 0,0 l/m 0 min 0 min 136 W/m 41,8 km/h (6 Bft) 95,74 %
06.04.2022 15:12 10,6 C 10,6 C 7,2 C 80 % 1001,6 hPa 0,0 l/m 0 min 0 min 128 W/m 41,8 km/h (6 Bft) 95,74 %
06.04.2022 15:14 10,7 C 10,6 C 7,2 C 81 % 1001,5 hPa 0,0 l/m 0 min 0 min 137 W/m 35,4 km/h (5 Bft) 96,30 %
06.04.2022 15:16 10,7 C 10,6 C 7,2 C 80 % 1001,5 hPa 0,0 l/m 0 min 0 min 146 W/m 35,4 km/h (5 Bft) 95,74 %
06.04.2022 15:18 10,7 C 10,6 C 7,2 C 80 % 1001,5 hPa 0,0 l/m 0 min 0 min 136 W/m 25,7 km/h (4 Bft) 94,74 %
06.04.2022 15:20 10,7 C 10,6 C 7,2 C 80 % 1001,5 hPa 0,0 l/m 0 min 0 min 129 W/m 32,2 km/h (5 Bft) 93,75 %
06.04.2022 15:22 10,8 C 10,6 C 7,2 C 80 % 1001,5 hPa 0,0 l/m 0 min 0 min 165 W/m 29,0 km/h (5 Bft) 95,74 %
06.04.2022 15:24 10,8 C 10,6 C 7,2 C 80 % 1001,3 hPa 0,0 l/m 0 min 0 min 208 W/m 25,7 km/h (4 Bft) 94,44 %
06.04.2022 15:26 10,8 C 10,6 C 7,2 C 79 % 1001,3 hPa 0,0 l/m 0 min 0 min 197 W/m 45,1 km/h (6 Bft) 97,37 %
06.04.2022 15:28 10,9 C 10,6 C 7,2 C 79 % 1001,3 hPa 0,0 l/m 0 min 0 min 159 W/m 32,2 km/h (5 Bft) 97,96 %
06.04.2022 15:30 10,9 C 10,6 C 7,2 C 79 % 1001,3 hPa 0,0 l/m 0 min 0 min 170 W/m 19,3 km/h (3 Bft) 97,83 %
06.04.2022 15:32 10,9 C 10,6 C 7,2 C 79 % 1001,2 hPa 0,0 l/m 0 min 0 min 182 W/m 29,0 km/h (5 Bft) 94,44 %
06.04.2022 15:34 11,0 C 10,6 C 7,2 C 79 % 1001,2 hPa 0,0 l/m 0 min 0 min 151 W/m 29,0 km/h (5 Bft) 97,87 %
06.04.2022 15:36 11,0 C 10,6 C 7,2 C 78 % 1001,2 hPa 0,0 l/m 0 min 0 min 137 W/m 61,2 km/h (7 Bft) 100,00 %
06.04.2022 15:38 11,0 C 10,6 C 7,2 C 78 % 1001,2 hPa 0,0 l/m 0 min 0 min 140 W/m 35,4 km/h (5 Bft) 97,87 %
06.04.2022 15:40 11,1 C 10,6 C 7,2 C 78 % 1001,1 hPa 0,0 l/m 0 min 0 min 165 W/m 35,4 km/h (5 Bft) 97,87 %
06.04.2022 15:42 11,1 C 11,1 C 7,2 C 78 % 1001,1 hPa 0,0 l/m 0 min 0 min 186 W/m 29,0 km/h (5 Bft) 97,92 %
06.04.2022 15:44 11,1 C 11,1 C 7,8 C 78 % 1001,0 hPa 0,0 l/m 0 min 2 min 216 W/m 38,6 km/h (5 Bft) 97,87 %
06.04.2022 15:46 11,1 C 11,1 C 7,8 C 78 % 1001,0 hPa 0,0 l/m 2 min 2 min 307 W/m 41,8 km/h (6 Bft) 100,00 %
06.04.2022 15:48 11,2 C 11,1 C 7,8 C 78 % 1001,0 hPa 0,0 l/m 0 min 0 min 233 W/m 35,4 km/h (5 Bft) 100,00 %
06.04.2022 15:50 11,2 C 11,1 C 7,8 C 78 % 1001,0 hPa 0,0 l/m 0 min 0 min 164 W/m 25,7 km/h (4 Bft) 100,00 %
06.04.2022 15:52 11,2 C 11,1 C 7,8 C 78 % 1000,9 hPa 0,0 l/m 0 min 0 min 173 W/m 25,7 km/h (4 Bft) 100,00 %
06.04.2022 15:54 11,3 C 11,1 C 7,8 C 78 % 1000,8 hPa 0,0 l/m 0 min 0 min 170 W/m 22,5 km/h (4 Bft) 100,00 %
06.04.2022 15:56 11,3 C 11,1 C 7,8 C 78 % 1000,9 hPa 0,0 l/m 0 min 0 min 168 W/m 38,6 km/h (5 Bft) 100,00 %
06.04.2022 15:58 11,3 C 11,1 C 7,8 C 78 % 1000,8 hPa 0,0 l/m 0 min 0 min 177 W/m 22,5 km/h (4 Bft) 100,00 %
06.04.2022 16:00 11,3 C 11,1 C 7,8 C 77 % 1000,9 hPa 0,0 l/m 0 min 0 min 214 W/m 41,8 km/h (6 Bft) 100,00 %
06.04.2022 16:02 11,3 C 11,1 C 7,8 C 77 % 1000,8 hPa 0,0 l/m 0 min 0 min 207 W/m 41,8 km/h (6 Bft) 100,00 %
06.04.2022 16:04 11,3 C 11,1 C 7,8 C 77 % 1000,7 hPa 0,0 l/m 0 min 0 min 195 W/m 48,3 km/h (6 Bft) 100,00 %
06.04.2022 16:06 11,3 C 11,1 C 7,8 C 76 % 1000,7 hPa 0,0 l/m 0 min 0 min 198 W/m 61,2 km/h (7 Bft) 100,00 %
06.04.2022 16:08 11,3 C 11,1 C 7,8 C 77 % 1000,7 hPa 0,0 l/m 0 min 0 min 211 W/m 25,7 km/h (4 Bft) 97,87 %
06.04.2022 16:10 11,3 C 11,1 C 7,8 C 77 % 1000,7 hPa 0,0 l/m 0 min 0 min 196 W/m 48,3 km/h (6 Bft) 100,00 %
06.04.2022 16:12 11,3 C 11,1 C 7,8 C 76 % 1000,6 hPa 0,0 l/m 0 min 0 min 200 W/m 48,3 km/h (6 Bft) 100,00 %
06.04.2022 16:14 11,4 C 11,1 C 7,8 C 77 % 1000,5 hPa 0,0 l/m 0 min 0 min 242 W/m 29,0 km/h (5 Bft) 100,00 %
06.04.2022 16:16 11,4 C 11,7 C 7,8 C 77 % 1000,4 hPa 0,0 l/m 2 min 0 min 290 W/m 29,0 km/h (5 Bft) 100,00 %
06.04.2022 16:18 11,5 C 11,7 C 7,8 C 77 % 1000,5 hPa 0,0 l/m 2 min 0 min 335 W/m 29,0 km/h (5 Bft) 100,00 %
06.04.2022 16:20 11,6 C 11,7 C 8,3 C 77 % 1000,3 hPa 0,0 l/m 2 min 0 min 299 W/m 38,6 km/h (5 Bft) 100,00 %
06.04.2022 16:22 11,6 C 11,7 C 8,3 C 76 % 1000,4 hPa 0,0 l/m 0 min 0 min 250 W/m 35,4 km/h (5 Bft) 97,87 %
06.04.2022 16:24 11,6 C 11,7 C 8,3 C 76 % 1000,4 hPa 0,0 l/m 0 min 0 min 206 W/m 41,8 km/h (6 Bft) 100,00 %
06.04.2022 16:26 11,7 C 11,7 C 8,3 C 76 % 1000,3 hPa 0,0 l/m 0 min 0 min 220 W/m 41,8 km/h (6 Bft) 100,00 %
06.04.2022 16:28 11,7 C 11,7 C 8,3 C 76 % 1000,2 hPa 0,0 l/m 0 min 0 min 225 W/m 41,8 km/h (6 Bft) 100,00 %
06.04.2022 16:30 11,7 C 11,7 C 8,3 C 76 % 1000,2 hPa 0,0 l/m 0 min 0 min 194 W/m 25,7 km/h (4 Bft) 100,00 %
06.04.2022 16:32 11,7 C 11,7 C 7,8 C 75 % 1000,1 hPa 0,0 l/m 0 min 0 min 215 W/m 45,1 km/h (6 Bft) 100,00 %
06.04.2022 16:34 11,7 C 12,2 C 8,3 C 76 % 1000,0 hPa 0,0 l/m 2 min 0 min 319 W/m 45,1 km/h (6 Bft) 97,87 %
06.04.2022 16:36 11,7 C 11,7 C 8,3 C 76 % 1000,1 hPa 0,0 l/m 2 min 0 min 280 W/m 51,5 km/h (7 Bft) 97,87 %
06.04.2022 16:38 11,7 C 11,7 C 7,8 C 75 % 1000,0 hPa 0,0 l/m 0 min 0 min 224 W/m 32,2 km/h (5 Bft) 100,00 %
06.04.2022 16:40 11,7 C 11,7 C 8,3 C 76 % 1000,0 hPa 0,0 l/m 0 min 0 min 228 W/m 35,4 km/h (5 Bft) 97,83 %
06.04.2022 16:42 11,7 C 11,7 C 8,3 C 75 % 1000,1 hPa 0,0 l/m 0 min 0 min 222 W/m 48,3 km/h (6 Bft) 100,00 %
06.04.2022 16:44 11,7 C 11,7 C 8,3 C 75 % 999,9 hPa 0,0 l/m 0 min 0 min 192 W/m 51,5 km/h (7 Bft) 97,87 %
06.04.2022 16:46 11,7 C 11,7 C 8,3 C 75 % 999,9 hPa 0,0 l/m 0 min 0 min 208 W/m 48,3 km/h (6 Bft) 95,74 %
06.04.2022 16:48 11,7 C 11,7 C 8,3 C 75 % 1000,0 hPa 0,0 l/m 0 min 0 min 201 W/m 29,0 km/h (5 Bft) 97,87 %
06.04.2022 16:50 11,8 C 11,7 C 8,3 C 75 % 999,9 hPa 0,0 l/m 0 min 0 min 196 W/m 35,4 km/h (5 Bft) 95,74 %
06.04.2022 16:52 11,8 C 11,7 C 8,3 C 75 % 999,9 hPa 0,0 l/m 0 min 0 min 153 W/m 29,0 km/h (5 Bft) 95,65 %
06.04.2022 16:54 11,8 C 11,7 C 7,8 C 74 % 1000,0 hPa 0,0 l/m 0 min 0 min 115 W/m 32,2 km/h (5 Bft) 95,74 %
06.04.2022 16:56 11,7 C 11,1 C 7,8 C 74 % 1000,0 hPa 0,0 l/m 0 min 0 min 110 W/m 45,1 km/h (6 Bft) 97,87 %
06.04.2022 16:58 11,7 C 11,1 C 7,8 C 74 % 1000,0 hPa 0,0 l/m 0 min 0 min 108 W/m 45,1 km/h (6 Bft) 95,74 %
06.04.2022 17:00 11,6 C 11,1 C 7,8 C 74 % 999,9 hPa 0,0 l/m 0 min 0 min 94 W/m 45,1 km/h (6 Bft) 97,87 %
06.04.2022 17:02 11,6 C 11,1 C 7,8 C 74 % 999,9 hPa 0,0 l/m 0 min 0 min 73 W/m 32,2 km/h (5 Bft) 97,87 %
06.04.2022 17:04 11,6 C 11,1 C 7,8 C 74 % 999,9 hPa 0,0 l/m 0 min 0 min 69 W/m 48,3 km/h (6 Bft) 95,65 %
06.04.2022 17:06 11,6 C 11,1 C 7,8 C 74 % 999,9 hPa 0,0 l/m 0 min 0 min 65 W/m 32,2 km/h (5 Bft) 93,62 %
06.04.2022 17:08 11,6 C 11,1 C 7,8 C 75 % 999,9 hPa 0,0 l/m 0 min 0 min 69 W/m 35,4 km/h (5 Bft) 97,87 %
06.04.2022 17:10 11,6 C 11,1 C 7,8 C 75 % 999,9 hPa 0,0 l/m 0 min 0 min 72 W/m 29,0 km/h (5 Bft) 97,87 %
06.04.2022 17:12 11,5 C 11,1 C 7,8 C 75 % 999,9 hPa 0,0 l/m 0 min 0 min 71 W/m 41,8 km/h (6 Bft) 95,74 %
06.04.2022 17:14 11,5 C 11,1 C 7,8 C 75 % 999,9 hPa 0,0 l/m 0 min 0 min 63 W/m 54,7 km/h (7 Bft) 95,74 %
06.04.2022 17:16 11,4 C 10,6 C 7,8 C 75 % 999,9 hPa 0,0 l/m 0 min 0 min 65 W/m 35,4 km/h (5 Bft) 53,33 %
06.04.2022 17:18 11,4 C 11,1 C 7,8 C 75 % 999,9 hPa 0,0 l/m 0 min 0 min 77 W/m 25,7 km/h (4 Bft) 95,74 %
06.04.2022 17:20 11,4 C 11,1 C 7,8 C 76 % 999,9 hPa 0,0 l/m 0 min 0 min 88 W/m 29,0 km/h (5 Bft) 93,62 %
06.04.2022 17:22 11,4 C 11,1 C 7,8 C 76 % 999,9 hPa 0,0 l/m 0 min 0 min 81 W/m 32,2 km/h (5 Bft) 93,62 %
06.04.2022 17:24 11,4 C 11,1 C 7,8 C 76 % 999,8 hPa 0,0 l/m 0 min 0 min 87 W/m 35,4 km/h (5 Bft) 95,74 %
06.04.2022 17:26 11,4 C 11,1 C 7,8 C 76 % 999,8 hPa 0,0 l/m 0 min 0 min 102 W/m 32,2 km/h (5 Bft) 95,74 %
06.04.2022 17:28 11,4 C 11,1 C 7,8 C 76 % 999,8 hPa 0,0 l/m 0 min 0 min 105 W/m 35,4 km/h (5 Bft) 95,65 %
06.04.2022 17:30 11,4 C 11,1 C 7,8 C 76 % 999,8 hPa 0,0 l/m 0 min 0 min 100 W/m 35,4 km/h (5 Bft) 95,74 %
06.04.2022 17:32 11,4 C 11,1 C 7,8 C 76 % 999,8 hPa 0,0 l/m 0 min 0 min 92 W/m 35,4 km/h (5 Bft) 97,87 %
06.04.2022 17:34 11,4 C 11,1 C 7,8 C 76 % 999,8 hPa 0,0 l/m 0 min 0 min 81 W/m 35,4 km/h (5 Bft) 97,87 %
06.04.2022 17:36 11,4 C 10,6 C 7,2 C 76 % 999,7 hPa 0,0 l/m 0 min 0 min 68 W/m 38,6 km/h (5 Bft) 97,87 %
06.04.2022 17:38 11,4 C 10,6 C 7,2 C 76 % 999,7 hPa 0,0 l/m 0 min 0 min 79 W/m 25,7 km/h (4 Bft) 93,62 %
06.04.2022 17:40 11,4 C 11,1 C 7,2 C 77 % 999,7 hPa 0,0 l/m 0 min 0 min 82 W/m 29,0 km/h (5 Bft) 95,65 %
06.04.2022 17:42 11,4 C 11,1 C 7,2 C 77 % 999,7 hPa 0,0 l/m 0 min 0 min 80 W/m 29,0 km/h (5 Bft) 95,74 %
06.04.2022 17:44 11,4 C 11,1 C 7,2 C 77 % 999,6 hPa 0,0 l/m 0 min 0 min 79 W/m 25,7 km/h (4 Bft) 95,74 %
06.04.2022 17:46 11,4 C 11,1 C 7,2 C 77 % 999,5 hPa 0,0 l/m 0 min 0 min 76 W/m 22,5 km/h (4 Bft) 97,87 %
06.04.2022 17:48 11,4 C 11,1 C 7,2 C 77 % 999,5 hPa 0,0 l/m 0 min 0 min 93 W/m 45,1 km/h (6 Bft) 97,87 %
06.04.2022 17:50 11,4 C 11,1 C 7,8 C 77 % 999,4 hPa 0,0 l/m 0 min 0 min 101 W/m 32,2 km/h (5 Bft) 97,87 %
06.04.2022 17:52 11,4 C 11,1 C 7,8 C 77 % 999,4 hPa 0,0 l/m 0 min 0 min 115 W/m 29,0 km/h (5 Bft) 95,65 %
06.04.2022 17:54 11,4 C 11,1 C 7,8 C 77 % 999,4 hPa 0,0 l/m 0 min 0 min 113 W/m 35,4 km/h (5 Bft) 97,87 %
06.04.2022 17:56 11,4 C 11,1 C 7,8 C 77 % 999,3 hPa 0,0 l/m 0 min 0 min 107 W/m 32,2 km/h (5 Bft) 97,87 %
06.04.2022 17:58 11,4 C 11,1 C 7,8 C 77 % 999,3 hPa 0,0 l/m 0 min 0 min 88 W/m 35,4 km/h (5 Bft) 97,87 %
06.04.2022 18:00 11,4 C 11,1 C 7,8 C 76 % 999,4 hPa 0,0 l/m 0 min 0 min 67 W/m 35,4 km/h (5 Bft) 97,87 %
06.04.2022 18:02 11,4 C 11,1 C 7,8 C 77 % 999,4 hPa 0,0 l/m 0 min 0 min 64 W/m 25,7 km/h (4 Bft) 95,74 %
06.04.2022 18:04 11,4 C 11,1 C 7,8 C 76 % 999,3 hPa 0,0 l/m 0 min 0 min 71 W/m 29,0 km/h (5 Bft) 97,37 %
06.04.2022 18:08 11,4 C 10,6 C 7,2 C 77 % 999,4 hPa 0,0 l/m 0 min 0 min 63 W/m 41,8 km/h (6 Bft) 97,14 %
06.04.2022 18:10 11,4 C 10,6 C 7,2 C 77 % 999,3 hPa 0,0 l/m 0 min 0 min 63 W/m 41,8 km/h (6 Bft) 97,62 %
06.04.2022 18:12 11,4 C 10,6 C 7,2 C 76 % 999,3 hPa 0,0 l/m 0 min 0 min 62 W/m 35,4 km/h (5 Bft) 98,00 %
06.04.2022 18:14 11,4 C 10,6 C 7,2 C 77 % 999,3 hPa 0,0 l/m 0 min 0 min 52 W/m 29,0 km/h (5 Bft) 97,87 %
06.04.2022 18:16 11,4 C 10,6 C 7,2 C 77 % 999,3 hPa 0,0 l/m 0 min 0 min 47 W/m 41,8 km/h (6 Bft) 97,83 %
06.04.2022 18:18 11,4 C 10,6 C 7,2 C 77 % 999,3 hPa 0,0 l/m 0 min 0 min 49 W/m 32,2 km/h (5 Bft) 97,96 %
06.04.2022 18:20 11,4 C 10,6 C 7,2 C 77 % 999,2 hPa 0,0 l/m 0 min 0 min 42 W/m 38,6 km/h (5 Bft) 97,87 %
06.04.2022 18:22 11,4 C 10,6 C 7,2 C 77 % 999,1 hPa 0,0 l/m 0 min 0 min 44 W/m 41,8 km/h (6 Bft) 97,62 %
06.04.2022 18:24 11,4 C 10,6 C 7,2 C 77 % 999,1 hPa 0,0 l/m 0 min 0 min 49 W/m 32,2 km/h (5 Bft) 98,00 %
06.04.2022 18:26 11,4 C 10,6 C 7,2 C 77 % 999,1 hPa 0,0 l/m 0 min 0 min 44 W/m 25,7 km/h (4 Bft) 97,92 %
06.04.2022 18:28 11,4 C 10,6 C 7,2 C 77 % 999,1 hPa 0,0 l/m 0 min 0 min 46 W/m 29,0 km/h (5 Bft) 97,87 %
06.04.2022 18:30 11,4 C 10,6 C 7,2 C 77 % 999,1 hPa 0,0 l/m 0 min 0 min 42 W/m 29,0 km/h (5 Bft) 97,62 %
06.04.2022 18:32 11,4 C 10,6 C 7,2 C 77 % 999,0 hPa 0,0 l/m 0 min 0 min 40 W/m 29,0 km/h (5 Bft) 100,00 %
06.04.2022 18:34 11,4 C 11,1 C 7,2 C 77 % 999,0 hPa 0,0 l/m 0 min 0 min 53 W/m 25,7 km/h (4 Bft) 100,00 %
06.04.2022 18:36 11,4 C 11,1 C 7,2 C 77 % 999,0 hPa 0,0 l/m 0 min 0 min 61 W/m 32,2 km/h (5 Bft) 97,87 %
06.04.2022 18:38 11,4 C 11,1 C 7,2 C 77 % 998,8 hPa 0,0 l/m 0 min 0 min 56 W/m 29,0 km/h (5 Bft) 100,00 %
06.04.2022 18:40 11,4 C 11,1 C 7,2 C 77 % 998,8 hPa 0,0 l/m 0 min 0 min 50 W/m 29,0 km/h (5 Bft) 100,00 %
06.04.2022 18:42 11,4 C 11,1 C 7,2 C 77 % 998,8 hPa 0,0 l/m 0 min 0 min 42 W/m 25,7 km/h (4 Bft) 98,00 %
06.04.2022 18:44 11,4 C 11,1 C 7,2 C 77 % 998,7 hPa 0,0 l/m 0 min 0 min 45 W/m 29,0 km/h (5 Bft) 100,00 %
06.04.2022 18:46 11,4 C 11,1 C 7,2 C 77 % 998,8 hPa 0,0 l/m 0 min 0 min 55 W/m 29,0 km/h (5 Bft) 96,43 %
06.04.2022 18:48 11,4 C 11,1 C 7,2 C 77 % 998,7 hPa 0,0 l/m 0 min 0 min 63 W/m 35,4 km/h (5 Bft) 100,00 %
06.04.2022 18:50 11,5 C 11,1 C 7,2 C 77 % 998,6 hPa 0,0 l/m 0 min 0 min 65 W/m 32,2 km/h (5 Bft) 100,00 %
06.04.2022 18:52 11,5 C 11,1 C 7,2 C 77 % 998,6 hPa 0,0 l/m 0 min 0 min 58 W/m 32,2 km/h (5 Bft) 100,00 %
06.04.2022 18:54 11,5 C 11,1 C 7,2 C 77 % 998,6 hPa 0,0 l/m 0 min 0 min 48 W/m 22,5 km/h (4 Bft) 98,00 %
06.04.2022 18:56 11,5 C 11,1 C 7,2 C 77 % 998,6 hPa 0,0 l/m 0 min 0 min 38 W/m 22,5 km/h (4 Bft) 100,00 %
06.04.2022 18:58 11,5 C 11,1 C 7,2 C 77 % 998,6 hPa 0,0 l/m 0 min 0 min 33 W/m 32,2 km/h (5 Bft) 100,00 %
06.04.2022 19:00 11,5 C 11,1 C 7,2 C 77 % 998,5 hPa 0,0 l/m 0 min 0 min 29 W/m 32,2 km/h (5 Bft) 97,37 %
06.04.2022 19:02 11,5 C 10,6 C 7,2 C 77 % 998,5 hPa 0,0 l/m 0 min 0 min 30 W/m 45,1 km/h (6 Bft) 100,00 %
06.04.2022 19:04 11,5 C 11,1 C 7,2 C 77 % 998,5 hPa 0,0 l/m 0 min 0 min 35 W/m 25,7 km/h (4 Bft) 100,00 %
06.04.2022 19:06 11,5 C 10,6 C 7,2 C 77 % 998,5 hPa 0,0 l/m 0 min 0 min 31 W/m 12,9 km/h (3 Bft) 97,87 %
06.04.2022 19:08 11,5 C 10,6 C 7,2 C 77 % 998,5 hPa 0,0 l/m 0 min 0 min 27 W/m 29,0 km/h (5 Bft) 100,00 %
06.04.2022 19:10 11,4 C 10,6 C 7,2 C 77 % 998,5 hPa 0,0 l/m 0 min 0 min 21 W/m 32,2 km/h (5 Bft) 98,21 %
06.04.2022 19:12 11,4 C 10,6 C 7,2 C 77 % 998,5 hPa 0,0 l/m 0 min 0 min 24 W/m 25,7 km/h (4 Bft) 97,87 %
06.04.2022 19:14 11,4 C 10,6 C 7,2 C 77 % 998,5 hPa 0,0 l/m 0 min 0 min 24 W/m 29,0 km/h (5 Bft) 97,83 %
06.04.2022 19:16 11,4 C 10,6 C 7,2 C 77 % 998,5 hPa 0,0 l/m 0 min 0 min 24 W/m 25,7 km/h (4 Bft) 96,00 %
06.04.2022 19:18 11,4 C 10,6 C 7,2 C 77 % 998,5 hPa 0,0 l/m 0 min 0 min 25 W/m 29,0 km/h (5 Bft) 97,87 %
06.04.2022 19:20 11,4 C 10,6 C 7,2 C 77 % 998,5 hPa 0,0 l/m 0 min 0 min 30 W/m 45,1 km/h (6 Bft) 100,00 %
06.04.2022 19:22 11,4 C 10,6 C 7,2 C 77 % 998,4 hPa 0,0 l/m 0 min 0 min 22 W/m 22,5 km/h (4 Bft) 97,87 %
06.04.2022 19:24 11,4 C 10,6 C 7,2 C 77 % 998,5 hPa 0,0 l/m 0 min 0 min 19 W/m 32,2 km/h (5 Bft) 97,87 %
06.04.2022 19:26 11,4 C 10,6 C 7,2 C 77 % 998,4 hPa 0,0 l/m 0 min 0 min 16 W/m 25,7 km/h (4 Bft) 97,83 %
06.04.2022 19:28 11,4 C 10,6 C 7,2 C 77 % 998,4 hPa 0,0 l/m 0 min 0 min 12 W/m 25,7 km/h (4 Bft) 98,21 %
06.04.2022 19:30 11,4 C 10,6 C 7,2 C 77 % 998,4 hPa 0,0 l/m 0 min 0 min 12 W/m 16,1 km/h (3 Bft) 94,74 %
06.04.2022 19:32 11,4 C 10,6 C 7,2 C 77 % 998,5 hPa 0,0 l/m 0 min 0 min 11 W/m 35,4 km/h (5 Bft) 95,74 %
06.04.2022 19:34 11,4 C 10,6 C 7,2 C 77 % 998,4 hPa 0,0 l/m 0 min 0 min 11 W/m 22,5 km/h (4 Bft) 93,62 %
06.04.2022 19:36 11,4 C 10,6 C 7,2 C 77 % 998,4 hPa 0,0 l/m 0 min 0 min 11 W/m 22,5 km/h (4 Bft) 96,36 %
06.04.2022 19:38 11,4 C 10,6 C 7,2 C 77 % 998,4 hPa 0,0 l/m 0 min 0 min 11 W/m 25,7 km/h (4 Bft) 95,74 %
06.04.2022 19:40 11,4 C 10,6 C 7,2 C 78 % 998,4 hPa 0,0 l/m 0 min 0 min 14 W/m 25,7 km/h (4 Bft) 93,62 %
06.04.2022 19:42 11,4 C 10,6 C 7,2 C 78 % 998,4 hPa 0,0 l/m 0 min 2 min 15 W/m 19,3 km/h (3 Bft) 94,74 %
06.04.2022 19:44 11,4 C 10,6 C 6,7 C 78 % 998,3 hPa 0,0 l/m 0 min 2 min 12 W/m 32,2 km/h (5 Bft) 97,87 %
06.04.2022 19:46 11,4 C 10,6 C 6,7 C 78 % 998,4 hPa 0,0 l/m 0 min 2 min 11 W/m 38,6 km/h (5 Bft) 96,43 %
06.04.2022 19:48 11,3 C 10,6 C 6,7 C 78 % 998,4 hPa 0,0 l/m 0 min 2 min 8 W/m 32,2 km/h (5 Bft) 97,83 %
06.04.2022 19:50 11,3 C 10,6 C 6,7 C 78 % 998,3 hPa 0,0 l/m 0 min 2 min 5 W/m 29,0 km/h (5 Bft) 97,87 %
06.04.2022 19:52 11,3 C 10,6 C 6,7 C 79 % 998,3 hPa 0,0 l/m 0 min 0 min 2 W/m 22,5 km/h (4 Bft) 97,87 %
06.04.2022 19:54 11,3 C 10,6 C 6,7 C 79 % 998,3 hPa 0,0 l/m 0 min 2 min 0 W/m 29,0 km/h (5 Bft) 97,37 %
06.04.2022 19:56 11,3 C 10,6 C 6,7 C 79 % 998,3 hPa 0,0 l/m 0 min 2 min 0 W/m 29,0 km/h (5 Bft) 97,87 %
06.04.2022 19:58 11,3 C 10,6 C 6,1 C 79 % 998,4 hPa 0,0 l/m 0 min 2 min 0 W/m 25,7 km/h (4 Bft) 96,00 %
06.04.2022 20:00 11,3 C 10,0 C 5,6 C 79 % 998,4 hPa 0,0 l/m 0 min 2 min 0 W/m 38,6 km/h (5 Bft) 93,48 %
06.04.2022 20:02 11,2 C 10,0 C 5,6 C 80 % 998,4 hPa 0,0 l/m 0 min 2 min 0 W/m 22,5 km/h (4 Bft) 98,21 %
06.04.2022 20:04 11,2 C 10,0 C 5,0 C 81 % 998,3 hPa 0,0 l/m 0 min 2 min 0 W/m 16,1 km/h (3 Bft) 97,73 %
06.04.2022 20:06 11,1 C 9,4 C 5,0 C 81 % 998,3 hPa 0,0 l/m 0 min 2 min 0 W/m 22,5 km/h (4 Bft) 97,14 %
06.04.2022 20:08 10,9 C 9,4 C 5,0 C 82 % 998,2 hPa 0,0 l/m 0 min 2 min 0 W/m 29,0 km/h (5 Bft) 96,43 %
06.04.2022 20:10 10,9 C 9,4 C 5,0 C 82 % 998,1 hPa 0,0 l/m 0 min 2 min 0 W/m 22,5 km/h (4 Bft) 97,87 %
06.04.2022 20:12 10,8 C 9,4 C 5,0 C 82 % 997,9 hPa 0,0 l/m 0 min 2 min 0 W/m 16,1 km/h (3 Bft) 95,65 %
06.04.2022 20:14 10,8 C 9,4 C 5,0 C 83 % 997,9 hPa 0,0 l/m 0 min 2 min 0 W/m 22,5 km/h (4 Bft) 97,87 %
06.04.2022 20:16 10,7 C 9,4 C 5,0 C 83 % 997,9 hPa 0,2 l/m 0 min 2 min 0 W/m 25,7 km/h (4 Bft) 96,00 %
06.04.2022 20:18 10,7 C 9,4 C 5,0 C 83 % 997,9 hPa 0,0 l/m 0 min 0 min 0 W/m 22,5 km/h (4 Bft) 100,00 %
06.04.2022 20:20 10,6 C 9,4 C 5,0 C 83 % 997,9 hPa 0,0 l/m 0 min 0 min 0 W/m 29,0 km/h (5 Bft) 97,14 %
06.04.2022 20:22 10,6 C 9,4 C 5,0 C 84 % 997,9 hPa 0,0 l/m 0 min 0 min 0 W/m 19,3 km/h (3 Bft) 100,00 %
06.04.2022 20:24 10,6 C 9,4 C 5,0 C 84 % 997,9 hPa 0,0 l/m 0 min 0 min 0 W/m 19,3 km/h (3 Bft) 97,83 %
06.04.2022 20:26 10,5 C 9,4 C 5,0 C 84 % 997,9 hPa 0,0 l/m 0 min 0 min 0 W/m 25,7 km/h (4 Bft) 100,00 %
06.04.2022 20:28 10,5 C 9,4 C 5,0 C 84 % 997,8 hPa 0,0 l/m 0 min 0 min 0 W/m 22,5 km/h (4 Bft) 100,00 %
06.04.2022 20:30 10,5 C 9,4 C 5,0 C 84 % 997,8 hPa 0,0 l/m 0 min 0 min 0 W/m 22,5 km/h (4 Bft) 97,87 %
06.04.2022 20:32 10,4 C 9,4 C 5,0 C 84 % 997,8 hPa 0,0 l/m 0 min 0 min 0 W/m 25,7 km/h (4 Bft) 97,14 %
06.04.2022 20:34 10,4 C 9,4 C 5,0 C 84 % 997,8 hPa 0,0 l/m 0 min 0 min 0 W/m 22,5 km/h (4 Bft) 97,87 %
06.04.2022 20:36 10,4 C 9,4 C 5,0 C 84 % 997,8 hPa 0,0 l/m 0 min 0 min 0 W/m 16,1 km/h (3 Bft) 98,18 %
06.04.2022 20:38 10,4 C 9,4 C 5,0 C 84 % 997,8 hPa 0,0 l/m 0 min 0 min 0 W/m 25,7 km/h (4 Bft) 97,87 %
06.04.2022 20:40 10,4 C 9,4 C 5,0 C 84 % 997,7 hPa 0,0 l/m 0 min 0 min 0 W/m 16,1 km/h (3 Bft) 97,87 %
06.04.2022 20:42 10,4 C 9,4 C 5,0 C 84 % 997,7 hPa 0,0 l/m 0 min 0 min 0 W/m 16,1 km/h (3 Bft) 96,00 %
06.04.2022 20:44 10,4 C 9,4 C 5,0 C 84 % 997,8 hPa 0,0 l/m 0 min 2 min 0 W/m 12,9 km/h (3 Bft) 97,14 %
06.04.2022 20:46 10,4 C 9,4 C 5,0 C 84 % 997,7 hPa 0,0 l/m 0 min 2 min 0 W/m 19,3 km/h (3 Bft) 98,18 %
06.04.2022 20:48 10,4 C 9,4 C 5,0 C 84 % 997,7 hPa 0,0 l/m 0 min 2 min 0 W/m 22,5 km/h (4 Bft) 97,87 %
06.04.2022 20:50 10,4 C 9,4 C 5,0 C 84 % 997,7 hPa 0,0 l/m 0 min 2 min 0 W/m 25,7 km/h (4 Bft) 97,87 %
06.04.2022 20:52 10,4 C 9,4 C 5,0 C 85 % 997,7 hPa 0,0 l/m 0 min 2 min 0 W/m 19,3 km/h (3 Bft) 97,87 %
06.04.2022 20:54 10,3 C 9,4 C 5,0 C 85 % 997,7 hPa 0,0 l/m 0 min 2 min 0 W/m 32,2 km/h (5 Bft) 96,00 %
06.04.2022 20:56 10,3 C 9,4 C 5,0 C 85 % 997,8 hPa 0,0 l/m 0 min 2 min 0 W/m 19,3 km/h (3 Bft) 97,83 %
06.04.2022 20:58 10,3 C 9,4 C 5,0 C 85 % 997,8 hPa 0,0 l/m 0 min 2 min 0 W/m 25,7 km/h (4 Bft) 97,87 %
06.04.2022 21:00 10,3 C 9,4 C 5,0 C 85 % 997,8 hPa 0,0 l/m 0 min 2 min 0 W/m 32,2 km/h (5 Bft) 97,87 %
06.04.2022 21:02 10,3 C 9,4 C 5,0 C 85 % 997,7 hPa 0,0 l/m 0 min 0 min 0 W/m 16,1 km/h (3 Bft) 97,73 %
06.04.2022 21:04 10,3 C 9,4 C 5,0 C 85 % 997,7 hPa 0,0 l/m 0 min 0 min 0 W/m 16,1 km/h (3 Bft) 97,73 %
06.04.2022 21:06 10,3 C 9,4 C 5,0 C 86 % 997,7 hPa 0,0 l/m 0 min 2 min 0 W/m 25,7 km/h (4 Bft) 95,74 %
06.04.2022 21:08 10,3 C 9,4 C 5,0 C 86 % 997,7 hPa 0,0 l/m 0 min 0 min 0 W/m 19,3 km/h (3 Bft) 96,00 %
06.04.2022 21:10 10,3 C 9,4 C 5,0 C 86 % 997,7 hPa 0,0 l/m 0 min 2 min 0 W/m 22,5 km/h (4 Bft) 95,65 %
06.04.2022 21:12 10,3 C 9,4 C 5,0 C 86 % 997,7 hPa 0,0 l/m 0 min 0 min 0 W/m 22,5 km/h (4 Bft) 97,87 %
06.04.2022 21:14 10,3 C 9,4 C 5,0 C 86 % 997,7 hPa 0,0 l/m 0 min 2 min 0 W/m 32,2 km/h (5 Bft) 95,74 %
06.04.2022 21:16 10,3 C 9,4 C 5,0 C 86 % 997,7 hPa 0,0 l/m 0 min 2 min 0 W/m 25,7 km/h (4 Bft) 97,73 %
06.04.2022 21:18 10,3 C 9,4 C 5,0 C 86 % 997,8 hPa 0,2 l/m 0 min 2 min 0 W/m 25,7 km/h (4 Bft) 98,00 %
06.04.2022 21:20 10,3 C 8,9 C 5,0 C 86 % 997,8 hPa 0,0 l/m 0 min 2 min 0 W/m 16,1 km/h (3 Bft) 97,87 %
06.04.2022 21:22 10,2 C 8,9 C 5,0 C 87 % 997,8 hPa 0,0 l/m 0 min 2 min 0 W/m 32,2 km/h (5 Bft) 97,83 %
06.04.2022 21:24 10,2 C 8,9 C 5,0 C 87 % 997,7 hPa 0,0 l/m 0 min 2 min 0 W/m 29,0 km/h (5 Bft) 97,87 %
06.04.2022 21:26 10,2 C 8,9 C 5,0 C 87 % 997,7 hPa 0,0 l/m 0 min 2 min 0 W/m 35,4 km/h (5 Bft) 97,87 %
06.04.2022 21:28 10,2 C 8,9 C 5,0 C 87 % 997,6 hPa 0,0 l/m 0 min 0 min 0 W/m 29,0 km/h (5 Bft) 95,74 %
06.04.2022 21:30 10,2 C 8,9 C 5,0 C 87 % 997,7 hPa 0,0 l/m 0 min 0 min 0 W/m 25,7 km/h (4 Bft) 93,62 %
06.04.2022 21:32 10,2 C 8,9 C 5,0 C 87 % 997,7 hPa 0,0 l/m 0 min 2 min 0 W/m 25,7 km/h (4 Bft) 96,15 %
06.04.2022 21:34 10,2 C 8,9 C 5,0 C 88 % 997,7 hPa 0,0 l/m 0 min 2 min 0 W/m 29,0 km/h (5 Bft) 97,87 %
06.04.2022 21:36 10,1 C 8,9 C 5,0 C 88 % 997,6 hPa 0,0 l/m 0 min 2 min 0 W/m 22,5 km/h (4 Bft) 100,00 %
06.04.2022 21:38 10,1 C 8,9 C 5,0 C 88 % 997,5 hPa 0,2 l/m 0 min 2 min 0 W/m 22,5 km/h (4 Bft) 97,87 %
06.04.2022 21:40 10,1 C 8,9 C 5,0 C 88 % 997,5 hPa 0,0 l/m 0 min 2 min 0 W/m 16,1 km/h (3 Bft) 100,00 %
06.04.2022 21:42 10,1 C 8,9 C 5,0 C 88 % 997,5 hPa 0,0 l/m 0 min 2 min 0 W/m 29,0 km/h (5 Bft) 97,87 %
06.04.2022 21:44 10,1 C 8,9 C 5,0 C 88 % 997,5 hPa 0,0 l/m 0 min 0 min 0 W/m 16,1 km/h (3 Bft) 100,00 %
06.04.2022 21:46 10,1 C 8,9 C 5,0 C 88 % 997,6 hPa 0,0 l/m 0 min 0 min 0 W/m 29,0 km/h (5 Bft) 100,00 %
06.04.2022 21:48 10,0 C 8,9 C 5,0 C 88 % 997,5 hPa 0,0 l/m 0 min 0 min 0 W/m 19,3 km/h (3 Bft) 97,87 %
06.04.2022 21:50 10,0 C 8,9 C 5,0 C 88 % 997,5 hPa 0,0 l/m 0 min 0 min 0 W/m 29,0 km/h (5 Bft) 97,87 %
06.04.2022 21:52 9,9 C 8,9 C 5,0 C 88 % 997,6 hPa 0,0 l/m 0 min 2 min 0 W/m 35,4 km/h (5 Bft) 100,00 %
06.04.2022 21:54 10,0 C 8,9 C 5,0 C 88 % 997,5 hPa 0,0 l/m 0 min 0 min 0 W/m 25,7 km/h (4 Bft) 100,00 %
06.04.2022 21:56 10,0 C 8,9 C 5,0 C 88 % 997,5 hPa 0,0 l/m 0 min 0 min 0 W/m 29,0 km/h (5 Bft) 100,00 %
06.04.2022 21:58 10,0 C 9,4 C 5,0 C 88 % 997,5 hPa 0,0 l/m 0 min 0 min 0 W/m 32,2 km/h (5 Bft) 100,00 %
06.04.2022 22:00 10,1 C 9,4 C 5,0 C 88 % 997,5 hPa 0,0 l/m 0 min 2 min 0 W/m 25,7 km/h (4 Bft) 100,00 %
06.04.2022 22:02 10,1 C 9,4 C 5,0 C 88 % 997,5 hPa 0,0 l/m 0 min 2 min 0 W/m 25,7 km/h (4 Bft) 100,00 %
06.04.2022 22:04 10,1 C 9,4 C 5,0 C 88 % 997,4 hPa 0,0 l/m 0 min 0 min 0 W/m 29,0 km/h (5 Bft) 100,00 %
06.04.2022 22:06 10,1 C 9,4 C 5,0 C 88 % 997,4 hPa 0,0 l/m 0 min 0 min 0 W/m 19,3 km/h (3 Bft) 100,00 %
06.04.2022 22:08 10,1 C 9,4 C 5,0 C 88 % 997,4 hPa 0,0 l/m 0 min 0 min 0 W/m 29,0 km/h (5 Bft) 100,00 %
06.04.2022 22:10 10,1 C 9,4 C 5,0 C 88 % 997,4 hPa 0,0 l/m 0 min 0 min 0 W/m 25,7 km/h (4 Bft) 100,00 %
06.04.2022 22:12 10,1 C 9,4 C 5,0 C 88 % 997,4 hPa 0,0 l/m 0 min 0 min 0 W/m 25,7 km/h (4 Bft) 100,00 %
06.04.2022 22:14 10,1 C 9,4 C 5,0 C 88 % 997,4 hPa 0,0 l/m 0 min 0 min 0 W/m 25,7 km/h (4 Bft) 100,00 %
06.04.2022 22:16 10,1 C 9,4 C 5,0 C 88 % 997,4 hPa 0,0 l/m 0 min 0 min 0 W/m 32,2 km/h (5 Bft) 100,00 %
06.04.2022 22:18 10,2 C 9,4 C 5,0 C 88 % 997,3 hPa 0,0 l/m 0 min 0 min 0 W/m 29,0 km/h (5 Bft) 100,00 %
06.04.2022 22:20 10,2 C 9,4 C 5,0 C 88 % 997,3 hPa 0,0 l/m 0 min 0 min 0 W/m 19,3 km/h (3 Bft) 100,00 %
06.04.2022 22:22 10,2 C 9,4 C 5,0 C 88 % 997,2 hPa 0,0 l/m 0 min 0 min 0 W/m 19,3 km/h (3 Bft) 100,00 %
06.04.2022 22:24 10,2 C 9,4 C 5,0 C 88 % 997,3 hPa 0,0 l/m 0 min 0 min 0 W/m 19,3 km/h (3 Bft) 97,87 %
06.04.2022 22:26 10,2 C 9,4 C 5,0 C 88 % 997,3 hPa 0,0 l/m 0 min 0 min 0 W/m 25,7 km/h (4 Bft) 100,00 %
06.04.2022 22:28 10,2 C 9,4 C 5,0 C 87 % 997,2 hPa 0,0 l/m 0 min 0 min 0 W/m 25,7 km/h (4 Bft) 100,00 %
06.04.2022 22:30 10,2 C 9,4 C 5,0 C 87 % 997,2 hPa 0,0 l/m 0 min 0 min 0 W/m 22,5 km/h (4 Bft) 100,00 %
06.04.2022 22:32 10,2 C 9,4 C 5,0 C 87 % 997,2 hPa 0,0 l/m 0 min 0 min 0 W/m 22,5 km/h (4 Bft) 100,00 %
06.04.2022 22:34 10,2 C 9,4 C 5,0 C 87 % 997,1 hPa 0,0 l/m 0 min 0 min 0 W/m 35,4 km/h (5 Bft) 100,00 %
06.04.2022 22:36 10,2 C 9,4 C 5,0 C 87 % 997,1 hPa 0,0 l/m 0 min 0 min 0 W/m 29,0 km/h (5 Bft) 96,43 %
06.04.2022 22:38 10,3 C 9,4 C 5,0 C 87 % 997,2 hPa 0,0 l/m 0 min 0 min 0 W/m 29,0 km/h (5 Bft) 97,87 %
06.04.2022 22:40 10,3 C 9,4 C 5,0 C 86 % 997,1 hPa 0,0 l/m 0 min 0 min 0 W/m 22,5 km/h (4 Bft) 97,87 %
06.04.2022 22:42 10,3 C 9,4 C 5,0 C 86 % 997,0 hPa 0,0 l/m 0 min 0 min 0 W/m 32,2 km/h (5 Bft) 97,83 %
06.04.2022 22:44 10,3 C 9,4 C 5,0 C 86 % 997,1 hPa 0,0 l/m 0 min 0 min 0 W/m 32,2 km/h (5 Bft) 97,37 %
06.04.2022 22:46 10,4 C 9,4 C 5,0 C 86 % 997,0 hPa 0,0 l/m 0 min 0 min 0 W/m 32,2 km/h (5 Bft) 97,87 %
06.04.2022 22:48 10,4 C 9,4 C 5,0 C 86 % 997,0 hPa 0,0 l/m 0 min 0 min 0 W/m 29,0 km/h (5 Bft) 97,87 %
06.04.2022 22:50 10,4 C 9,4 C 5,0 C 86 % 997,0 hPa 0,0 l/m 0 min 0 min 0 W/m 29,0 km/h (5 Bft) 94,64 %
06.04.2022 22:52 10,4 C 9,4 C 5,0 C 86 % 997,0 hPa 0,0 l/m 0 min 0 min 0 W/m 29,0 km/h (5 Bft) 100,00 %
06.04.2022 22:54 10,4 C 9,4 C 5,0 C 85 % 997,0 hPa 0,0 l/m 0 min 0 min 0 W/m 35,4 km/h (5 Bft) 93,62 %
06.04.2022 22:56 10,4 C 9,4 C 5,0 C 85 % 997,0 hPa 0,0 l/m 0 min 0 min 0 W/m 19,3 km/h (3 Bft) 95,65 %
06.04.2022 22:58 10,4 C 9,4 C 5,6 C 85 % 997,0 hPa 0,0 l/m 0 min 0 min 0 W/m 22,5 km/h (4 Bft) 94,00 %
06.04.2022 23:00 10,4 C 9,4 C 5,6 C 85 % 996,9 hPa 0,0 l/m 0 min 0 min 0 W/m 22,5 km/h (4 Bft) 93,62 %
06.04.2022 23:02 10,3 C 9,4 C 5,6 C 85 % 996,9 hPa 0,0 l/m 0 min 0 min 0 W/m 19,3 km/h (3 Bft) 92,86 %
06.04.2022 23:04 10,3 C 9,4 C 5,6 C 85 % 996,9 hPa 0,0 l/m 0 min 0 min 0 W/m 38,6 km/h (5 Bft) 93,02 %
06.04.2022 23:06 10,3 C 9,4 C 5,6 C 85 % 996,7 hPa 0,0 l/m 0 min 0 min 0 W/m 32,2 km/h (5 Bft) 91,49 %
06.04.2022 23:08 10,3 C 9,4 C 5,6 C 85 % 996,9 hPa 0,0 l/m 0 min 0 min 0 W/m 25,7 km/h (4 Bft) 89,36 %
06.04.2022 23:10 10,3 C 9,4 C 5,6 C 85 % 996,9 hPa 0,0 l/m 0 min 0 min 0 W/m 41,8 km/h (6 Bft) 93,62 %
06.04.2022 23:12 10,3 C 9,4 C 5,6 C 85 % 996,9 hPa 0,0 l/m 0 min 0 min 0 W/m 29,0 km/h (5 Bft) 95,74 %
06.04.2022 23:14 10,3 C 9,4 C 5,6 C 85 % 996,9 hPa 0,0 l/m 0 min 0 min 0 W/m 29,0 km/h (5 Bft) 94,29 %
06.04.2022 23:16 10,3 C 9,4 C 5,6 C 85 % 996,8 hPa 0,0 l/m 0 min 0 min 0 W/m 29,0 km/h (5 Bft) 91,49 %
06.04.2022 23:18 10,2 C 9,4 C 5,6 C 85 % 996,8 hPa 0,0 l/m 0 min 0 min 0 W/m 29,0 km/h (5 Bft) 94,55 %
06.04.2022 23:20 10,3 C 9,4 C 5,6 C 85 % 996,7 hPa 0,0 l/m 0 min 0 min 0 W/m 29,0 km/h (5 Bft) 94,00 %
06.04.2022 23:22 10,3 C 9,4 C 5,6 C 85 % 996,7 hPa 0,0 l/m 0 min 0 min 0 W/m 35,4 km/h (5 Bft) 91,43 %
06.04.2022 23:24 10,3 C 9,4 C 5,6 C 84 % 996,7 hPa 0,0 l/m 0 min 0 min 0 W/m 22,5 km/h (4 Bft) 94,64 %
06.04.2022 23:26 10,2 C 9,4 C 5,6 C 84 % 996,6 hPa 0,0 l/m 0 min 0 min 0 W/m 35,4 km/h (5 Bft) 93,62 %
06.04.2022 23:28 10,2 C 9,4 C 5,6 C 84 % 996,8 hPa 0,0 l/m 0 min 0 min 0 W/m 38,6 km/h (5 Bft) 93,62 %
06.04.2022 23:30 10,3 C 9,4 C 5,6 C 84 % 996,6 hPa 0,0 l/m 0 min 0 min 0 W/m 25,7 km/h (4 Bft) 97,83 %
06.04.2022 23:32 10,2 C 9,4 C 5,6 C 84 % 996,6 hPa 0,0 l/m 0 min 0 min 0 W/m 25,7 km/h (4 Bft) 97,87 %
06.04.2022 23:34 10,2 C 9,4 C 5,6 C 84 % 996,5 hPa 0,0 l/m 0 min 0 min 0 W/m 25,7 km/h (4 Bft) 97,87 %
06.04.2022 23:36 10,2 C 9,4 C 5,6 C 84 % 996,5 hPa 0,0 l/m 0 min 0 min 0 W/m 19,3 km/h (3 Bft) 98,00 %
06.04.2022 23:38 10,2 C 9,4 C 5,6 C 84 % 996,5 hPa 0,0 l/m 0 min 0 min 0 W/m 32,2 km/h (5 Bft) 93,62 %
06.04.2022 23:40 10,2 C 9,4 C 5,6 C 84 % 996,5 hPa 0,0 l/m 0 min 0 min 0 W/m 32,2 km/h (5 Bft) 94,74 %
06.04.2022 23:42 10,2 C 9,4 C 5,6 C 84 % 996,4 hPa 0,0 l/m 0 min 0 min 0 W/m 22,5 km/h (4 Bft) 97,83 %
06.04.2022 23:44 10,2 C 9,4 C 5,6 C 84 % 996,4 hPa 0,0 l/m 0 min 0 min 0 W/m 29,0 km/h (5 Bft) 97,87 %
06.04.2022 23:46 10,2 C 9,4 C 5,6 C 85 % 996,4 hPa 0,0 l/m 0 min 0 min 0 W/m 25,7 km/h (4 Bft) 93,62 %
06.04.2022 23:48 10,2 C 9,4 C 5,6 C 85 % 996,4 hPa 0,0 l/m 0 min 0 min 0 W/m 22,5 km/h (4 Bft) 100,00 %
06.04.2022 23:50 10,2 C 9,4 C 6,1 C 85 % 996,4 hPa 0,0 l/m 0 min 0 min 0 W/m 38,6 km/h (5 Bft) 100,00 %
06.04.2022 23:52 10,2 C 9,4 C 6,1 C 85 % 996,3 hPa 0,0 l/m 0 min 0 min 0 W/m 35,4 km/h (5 Bft) 100,00 %
06.04.2022 23:54 10,2 C 9,4 C 6,1 C 85 % 996,2 hPa 0,0 l/m 0 min 0 min 0 W/m 19,3 km/h (3 Bft) 100,00 %
06.04.2022 23:56 10,2 C 9,4 C 6,1 C 85 % 996,2 hPa 0,0 l/m 0 min 0 min 0 W/m 19,3 km/h (3 Bft) 97,87 %
06.04.2022 23:58 10,2 C 9,4 C 6,1 C 85 % 996,2 hPa 0,0 l/m 0 min 0 min 0 W/m 25,7 km/h (4 Bft) 100,00 %
_ Min-Zeit 06:02 05:50 04:26 16:54 23:54 - - - - 00:10 07:22
Minimum _ 8,7 C 7,8 C 5,0 C 74 % 996,2 hPa - - - - 6,4 km/h (2 Bft) 37,50 %
_ Max-Zeit 16:50 16:34 16:20 00:00 00:00 00:04 15:46 14:30 16:18 15:36 00:16
Maximum _ 11,8 C 12,2 C 8,3 C 96 % 1006,1 hPa 0,2 l/m 2 min 2 min 335 W/m 61,2 km/h
SW (7 Bft)
100,00 %
Durchschnitt _ 10,0 C 9,3 C 6,2 C 84 % 1002,1 hPa #0,8 l/m #12 min. #2:08 h 108 W/m 25,5 km/h (4 Bft) 97,28 %
© 2022 W. Hausmann